<?xml version="1.0" encoding="UTF-8" standalone="no" ?><gpx xmlns="http://www.topografix.com/GPX/1/1" xmlns:gpxx="http://www.garmin.com/xmlschemas/GpxExtensions/v3" xmlns:wptx1="http://www.garmin.com/xmlschemas/WaypointExtension/v1" xmlns:gpxtpx="http://www.garmin.com/xmlschemas/TrackPointExtension/v1" creator="GuideVTT.com" version="1.1" xmlns:xsi="http://www.w3.org/2001/XMLSchema-instance" xsi:schemaLocation="http://www.topografix.com/GPX/1/1 http://www.topografix.com/GPX/1/1/gpx.xsd http://www.garmin.com/xmlschemas/GpxExtensions/v3 http://www8.garmin.com/xmlschemas/GpxExtensionsv3.xsd http://www.garmin.com/xmlschemas/WaypointExtension/v1 http://www8.garmin.com/xmlschemas/WaypointExtensionv1.xsd http://www.garmin.com/xmlschemas/TrackPointExtension/v1 http://www.garmin.com/xmlschemas/TrackPointExtensionv1.xsd">
<metadata><link href="http://www.garmin.com"><text>Garmin International</text></link><time>2013-06-22T15:13:50Z</time></metadata>
<trk><name>rp2016_49.gpx</name><extensions><gpxx:TrackExtension><gpxx:DisplayColor>Cyan</gpxx:DisplayColor></gpxx:TrackExtension></extensions><trkseg>
<trkpt lat="46.4942" lon="6.70964"><ele>380.8</ele><time>2016-10-18T13:47:02Z</time></trkpt>
<trkpt lat="46.49419" lon="6.70964"><ele>380.8</ele><time>2016-10-18T13:47:03Z</time></trkpt>
<trkpt lat="46.49421" lon="6.70962"><ele>381.4</ele><time>2016-10-18T13:47:21Z</time></trkpt>
<trkpt lat="46.49421" lon="6.70962"><ele>381.6</ele><time>2016-10-18T13:47:25Z</time></trkpt>
<trkpt lat="46.49435" lon="6.70944"><ele>381.8</ele><time>2016-10-18T13:47:47Z</time></trkpt>
<trkpt lat="46.4945" lon="6.70922"><ele>381.6</ele><time>2016-10-18T13:47:54Z</time></trkpt>
<trkpt lat="46.49465" lon="6.70902"><ele>380.8</ele><time>2016-10-18T13:48:01Z</time></trkpt>
<trkpt lat="46.49474" lon="6.70894"><ele>380.8</ele><time>2016-10-18T13:48:05Z</time></trkpt>
<trkpt lat="46.49479" lon="6.70895"><ele>381</ele><time>2016-10-18T13:48:07Z</time></trkpt>
<trkpt lat="46.49483" lon="6.70898"><ele>381.8</ele><time>2016-10-18T13:48:09Z</time></trkpt>
<trkpt lat="46.49485" lon="6.70902"><ele>382.6</ele><time>2016-10-18T13:48:11Z</time></trkpt>
<trkpt lat="46.49493" lon="6.70919"><ele>384.8</ele><time>2016-10-18T13:48:19Z</time></trkpt>
<trkpt lat="46.49489" lon="6.70945"><ele>387.8</ele><time>2016-10-18T13:48:30Z</time></trkpt>
<trkpt lat="46.49487" lon="6.70949"><ele>388.4</ele><time>2016-10-18T13:48:32Z</time></trkpt>
<trkpt lat="46.49476" lon="6.70971"><ele>390.2</ele><time>2016-10-18T13:48:42Z</time></trkpt>
<trkpt lat="46.49469" lon="6.70983"><ele>390.6</ele><time>2016-10-18T13:48:47Z</time></trkpt>
<trkpt lat="46.49465" lon="6.7099"><ele>390.8</ele><time>2016-10-18T13:48:50Z</time></trkpt>
<trkpt lat="46.49453" lon="6.7101"><ele>391.8</ele><time>2016-10-18T13:48:59Z</time></trkpt>
<trkpt lat="46.49432" lon="6.71035"><ele>392.8</ele><time>2016-10-18T13:49:09Z</time></trkpt>
<trkpt lat="46.49416" lon="6.71048"><ele>393.6</ele><time>2016-10-18T13:49:14Z</time></trkpt>
<trkpt lat="46.49398" lon="6.71064"><ele>392.6</ele><time>2016-10-18T13:49:20Z</time></trkpt>
<trkpt lat="46.49383" lon="6.71072"><ele>390.8</ele><time>2016-10-18T13:49:23Z</time></trkpt>
<trkpt lat="46.49362" lon="6.71088"><ele>388.2</ele><time>2016-10-18T13:49:27Z</time></trkpt>
<trkpt lat="46.49357" lon="6.71092"><ele>387.8</ele><time>2016-10-18T13:49:28Z</time></trkpt>
<trkpt lat="46.49351" lon="6.71097"><ele>388</ele><time>2016-10-18T13:49:29Z</time></trkpt>
<trkpt lat="46.49346" lon="6.71101"><ele>387.4</ele><time>2016-10-18T13:49:30Z</time></trkpt>
<trkpt lat="46.49334" lon="6.71121"><ele>386.6</ele><time>2016-10-18T13:49:33Z</time></trkpt>
<trkpt lat="46.49321" lon="6.71145"><ele>388.8</ele><time>2016-10-18T13:49:37Z</time></trkpt>
<trkpt lat="46.4931" lon="6.71167"><ele>391.4</ele><time>2016-10-18T13:49:45Z</time></trkpt>
<trkpt lat="46.49308" lon="6.71172"><ele>391.6</ele><time>2016-10-18T13:49:47Z</time></trkpt>
<trkpt lat="46.49305" lon="6.71176"><ele>392.2</ele><time>2016-10-18T13:49:49Z</time></trkpt>
<trkpt lat="46.49299" lon="6.71186"><ele>393.2</ele><time>2016-10-18T13:49:53Z</time></trkpt>
<trkpt lat="46.49286" lon="6.71207"><ele>394.6</ele><time>2016-10-18T13:50:01Z</time></trkpt>
<trkpt lat="46.49278" lon="6.71216"><ele>395.2</ele><time>2016-10-18T13:50:05Z</time></trkpt>
<trkpt lat="46.49267" lon="6.71227"><ele>396.2</ele><time>2016-10-18T13:50:10Z</time></trkpt>
<trkpt lat="46.49252" lon="6.71243"><ele>397</ele><time>2016-10-18T13:50:16Z</time></trkpt>
<trkpt lat="46.49237" lon="6.71259"><ele>398.4</ele><time>2016-10-18T13:50:22Z</time></trkpt>
<trkpt lat="46.49229" lon="6.71271"><ele>399.2</ele><time>2016-10-18T13:50:26Z</time></trkpt>
<trkpt lat="46.49217" lon="6.71291"><ele>401.8</ele><time>2016-10-18T13:50:33Z</time></trkpt>
<trkpt lat="46.4921" lon="6.71308"><ele>401.8</ele><time>2016-10-18T13:50:38Z</time></trkpt>
<trkpt lat="46.49202" lon="6.71332"><ele>401.4</ele><time>2016-10-18T13:50:43Z</time></trkpt>
<trkpt lat="46.49199" lon="6.7136"><ele>402.4</ele><time>2016-10-18T13:50:49Z</time></trkpt>
<trkpt lat="46.49199" lon="6.7137"><ele>403.2</ele><time>2016-10-18T13:50:52Z</time></trkpt>
<trkpt lat="46.49199" lon="6.71393"><ele>404.6</ele><time>2016-10-18T13:50:59Z</time></trkpt>
<trkpt lat="46.49198" lon="6.7142"><ele>403.8</ele><time>2016-10-18T13:51:04Z</time></trkpt>
<trkpt lat="46.49193" lon="6.71454"><ele>402</ele><time>2016-10-18T13:51:08Z</time></trkpt>
<trkpt lat="46.49186" lon="6.71483"><ele>402</ele><time>2016-10-18T13:51:11Z</time></trkpt>
<trkpt lat="46.49179" lon="6.71509"><ele>402.8</ele><time>2016-10-18T13:51:14Z</time></trkpt>
<trkpt lat="46.49172" lon="6.71536"><ele>404.4</ele><time>2016-10-18T13:51:18Z</time></trkpt>
<trkpt lat="46.4916" lon="6.71561"><ele>405.4</ele><time>2016-10-18T13:51:24Z</time></trkpt>
<trkpt lat="46.49148" lon="6.71584"><ele>408</ele><time>2016-10-18T13:51:30Z</time></trkpt>
<trkpt lat="46.4914" lon="6.71602"><ele>409.8</ele><time>2016-10-18T13:51:37Z</time></trkpt>
<trkpt lat="46.49144" lon="6.71607"><ele>411.6</ele><time>2016-10-18T13:51:41Z</time></trkpt>
<trkpt lat="46.49158" lon="6.71608"><ele>415.4</ele><time>2016-10-18T13:51:54Z</time></trkpt>
<trkpt lat="46.4916" lon="6.71607"><ele>415.8</ele><time>2016-10-18T13:51:56Z</time></trkpt>
<trkpt lat="46.49162" lon="6.71607"><ele>416</ele><time>2016-10-18T13:51:58Z</time></trkpt>
<trkpt lat="46.49164" lon="6.71606"><ele>416.6</ele><time>2016-10-18T13:52:00Z</time></trkpt>
<trkpt lat="46.49171" lon="6.71604"><ele>418.2</ele><time>2016-10-18T13:52:06Z</time></trkpt>
<trkpt lat="46.49184" lon="6.71596"><ele>419.8</ele><time>2016-10-18T13:52:18Z</time></trkpt>
<trkpt lat="46.49197" lon="6.71574"><ele>421.4</ele><time>2016-10-18T13:52:28Z</time></trkpt>
<trkpt lat="46.49198" lon="6.71571"><ele>421.4</ele><time>2016-10-18T13:52:29Z</time></trkpt>
<trkpt lat="46.49211" lon="6.71551"><ele>420.6</ele><time>2016-10-18T13:52:34Z</time></trkpt>
<trkpt lat="46.49226" lon="6.71532"><ele>421</ele><time>2016-10-18T13:52:39Z</time></trkpt>
<trkpt lat="46.49246" lon="6.71501"><ele>423.6</ele><time>2016-10-18T13:52:49Z</time></trkpt>
<trkpt lat="46.49258" lon="6.71482"><ele>426.2</ele><time>2016-10-18T13:52:56Z</time></trkpt>
<trkpt lat="46.4927" lon="6.7146"><ele>429.2</ele><time>2016-10-18T13:53:05Z</time></trkpt>
<trkpt lat="46.49277" lon="6.71432"><ele>428.8</ele><time>2016-10-18T13:53:13Z</time></trkpt>
<trkpt lat="46.49273" lon="6.71405"><ele>428.8</ele><time>2016-10-18T13:53:18Z</time></trkpt>
<trkpt lat="46.4927" lon="6.71396"><ele>429.6</ele><time>2016-10-18T13:53:20Z</time></trkpt>
<trkpt lat="46.49264" lon="6.71376"><ele>431.4</ele><time>2016-10-18T13:53:26Z</time></trkpt>
<trkpt lat="46.49258" lon="6.71351"><ele>431.4</ele><time>2016-10-18T13:53:33Z</time></trkpt>
<trkpt lat="46.49262" lon="6.71333"><ele>431.8</ele><time>2016-10-18T13:53:36Z</time></trkpt>
<trkpt lat="46.49271" lon="6.71321"><ele>433</ele><time>2016-10-18T13:53:39Z</time></trkpt>
<trkpt lat="46.49277" lon="6.71312"><ele>434.6</ele><time>2016-10-18T13:53:42Z</time></trkpt>
<trkpt lat="46.49285" lon="6.713"><ele>436.2</ele><time>2016-10-18T13:53:46Z</time></trkpt>
<trkpt lat="46.49309" lon="6.71285"><ele>439.8</ele><time>2016-10-18T13:53:54Z</time></trkpt>
<trkpt lat="46.49315" lon="6.7128"><ele>440.8</ele><time>2016-10-18T13:53:57Z</time></trkpt>
<trkpt lat="46.49315" lon="6.71279"><ele>441</ele><time>2016-10-18T13:53:58Z</time></trkpt>
<trkpt lat="46.49315" lon="6.71279"><ele>440.8</ele><time>2016-10-18T13:54:04Z</time></trkpt>
<trkpt lat="46.49315" lon="6.71279"><ele>440.8</ele><time>2016-10-18T13:54:07Z</time></trkpt>
<trkpt lat="46.49315" lon="6.7128"><ele>441</ele><time>2016-10-18T13:54:20Z</time></trkpt>
<trkpt lat="46.49315" lon="6.71281"><ele>441.2</ele><time>2016-10-18T13:54:30Z</time></trkpt>
<trkpt lat="46.49322" lon="6.71282"><ele>440.4</ele><time>2016-10-18T13:54:50Z</time></trkpt>
<trkpt lat="46.49333" lon="6.71275"><ele>442</ele><time>2016-10-18T13:54:55Z</time></trkpt>
<trkpt lat="46.49354" lon="6.71278"><ele>444.2</ele><time>2016-10-18T13:55:09Z</time></trkpt>
<trkpt lat="46.49352" lon="6.71303"><ele>448.8</ele><time>2016-10-18T13:55:26Z</time></trkpt>
<trkpt lat="46.49353" lon="6.71308"><ele>450</ele><time>2016-10-18T13:55:30Z</time></trkpt>
<trkpt lat="46.49354" lon="6.71318"><ele>452.2</ele><time>2016-10-18T13:55:38Z</time></trkpt>
<trkpt lat="46.49359" lon="6.71327"><ele>454.2</ele><time>2016-10-18T13:55:47Z</time></trkpt>
<trkpt lat="46.49361" lon="6.7133"><ele>454.8</ele><time>2016-10-18T13:55:50Z</time></trkpt>
<trkpt lat="46.49364" lon="6.71335"><ele>455.8</ele><time>2016-10-18T13:55:55Z</time></trkpt>
<trkpt lat="46.49364" lon="6.71336"><ele>456</ele><time>2016-10-18T13:55:56Z</time></trkpt>
<trkpt lat="46.49366" lon="6.71339"><ele>456.8</ele><time>2016-10-18T13:55:59Z</time></trkpt>
<trkpt lat="46.49368" lon="6.71342"><ele>457.4</ele><time>2016-10-18T13:56:02Z</time></trkpt>
<trkpt lat="46.49374" lon="6.71354"><ele>460.2</ele><time>2016-10-18T13:56:12Z</time></trkpt>
<trkpt lat="46.49382" lon="6.71378"><ele>464.2</ele><time>2016-10-18T13:56:29Z</time></trkpt>
<trkpt lat="46.4939" lon="6.71392"><ele>466.8</ele><time>2016-10-18T13:56:41Z</time></trkpt>
<trkpt lat="46.49405" lon="6.71406"><ele>470.8</ele><time>2016-10-18T13:56:57Z</time></trkpt>
<trkpt lat="46.49416" lon="6.71424"><ele>472.2</ele><time>2016-10-18T13:57:09Z</time></trkpt>
<trkpt lat="46.49421" lon="6.7145"><ele>475.8</ele><time>2016-10-18T13:57:23Z</time></trkpt>
<trkpt lat="46.49422" lon="6.71462"><ele>477.4</ele><time>2016-10-18T13:57:29Z</time></trkpt>
<trkpt lat="46.49425" lon="6.71495"><ele>480.6</ele><time>2016-10-18T13:57:48Z</time></trkpt>
<trkpt lat="46.49426" lon="6.71496"><ele>480.8</ele><time>2016-10-18T13:57:49Z</time></trkpt>
<trkpt lat="46.49429" lon="6.7151"><ele>483.4</ele><time>2016-10-18T13:57:58Z</time></trkpt>
<trkpt lat="46.49434" lon="6.71525"><ele>486.2</ele><time>2016-10-18T13:58:08Z</time></trkpt>
<trkpt lat="46.4944" lon="6.71541"><ele>488.8</ele><time>2016-10-18T13:58:18Z</time></trkpt>
<trkpt lat="46.49437" lon="6.71566"><ele>490.8</ele><time>2016-10-18T13:58:30Z</time></trkpt>
<trkpt lat="46.49425" lon="6.71587"><ele>491.2</ele><time>2016-10-18T13:58:39Z</time></trkpt>
<trkpt lat="46.49426" lon="6.71596"><ele>490.6</ele><time>2016-10-18T13:58:43Z</time></trkpt>
<trkpt lat="46.49424" lon="6.71591"><ele>491</ele><time>2016-10-18T13:58:46Z</time></trkpt>
<trkpt lat="46.49395" lon="6.71591"><ele>492.2</ele><time>2016-10-18T13:58:54Z</time></trkpt>
<trkpt lat="46.49378" lon="6.71603"><ele>491</ele><time>2016-10-18T13:59:00Z</time></trkpt>
<trkpt lat="46.49362" lon="6.71623"><ele>491.8</ele><time>2016-10-18T13:59:06Z</time></trkpt>
<trkpt lat="46.49352" lon="6.71646"><ele>492.8</ele><time>2016-10-18T13:59:12Z</time></trkpt>
<trkpt lat="46.49352" lon="6.7165"><ele>492.8</ele><time>2016-10-18T13:59:13Z</time></trkpt>
<trkpt lat="46.49361" lon="6.71668"><ele>492</ele><time>2016-10-18T13:59:17Z</time></trkpt>
<trkpt lat="46.49369" lon="6.71677"><ele>492</ele><time>2016-10-18T13:59:19Z</time></trkpt>
<trkpt lat="46.49376" lon="6.71686"><ele>491.2</ele><time>2016-10-18T13:59:21Z</time></trkpt>
<trkpt lat="46.49379" lon="6.71697"><ele>491.6</ele><time>2016-10-18T13:59:23Z</time></trkpt>
<trkpt lat="46.4938" lon="6.71702"><ele>491.8</ele><time>2016-10-18T13:59:24Z</time></trkpt>
<trkpt lat="46.4938" lon="6.71712"><ele>492.2</ele><time>2016-10-18T13:59:26Z</time></trkpt>
<trkpt lat="46.49377" lon="6.71725"><ele>489.6</ele><time>2016-10-18T13:59:28Z</time></trkpt>
<trkpt lat="46.49375" lon="6.71731"><ele>488.6</ele><time>2016-10-18T13:59:29Z</time></trkpt>
<trkpt lat="46.49374" lon="6.71737"><ele>488</ele><time>2016-10-18T13:59:30Z</time></trkpt>
<trkpt lat="46.49372" lon="6.71762"><ele>486.2</ele><time>2016-10-18T13:59:34Z</time></trkpt>
<trkpt lat="46.49372" lon="6.71777"><ele>485.4</ele><time>2016-10-18T13:59:36Z</time></trkpt>
<trkpt lat="46.49373" lon="6.71806"><ele>482.2</ele><time>2016-10-18T13:59:39Z</time></trkpt>
<trkpt lat="46.49372" lon="6.71838"><ele>481.8</ele><time>2016-10-18T13:59:42Z</time></trkpt>
<trkpt lat="46.49372" lon="6.71867"><ele>480.4</ele><time>2016-10-18T13:59:45Z</time></trkpt>
<trkpt lat="46.49371" lon="6.71887"><ele>478.8</ele><time>2016-10-18T13:59:47Z</time></trkpt>
<trkpt lat="46.49371" lon="6.71906"><ele>478.2</ele><time>2016-10-18T13:59:49Z</time></trkpt>
<trkpt lat="46.49372" lon="6.71925"><ele>478.4</ele><time>2016-10-18T13:59:51Z</time></trkpt>
<trkpt lat="46.49378" lon="6.71952"><ele>479.2</ele><time>2016-10-18T13:59:54Z</time></trkpt>
<trkpt lat="46.49384" lon="6.71968"><ele>480.2</ele><time>2016-10-18T13:59:56Z</time></trkpt>
<trkpt lat="46.49395" lon="6.71994"><ele>482.2</ele><time>2016-10-18T14:00:00Z</time></trkpt>
<trkpt lat="46.494" lon="6.72023"><ele>484</ele><time>2016-10-18T14:00:05Z</time></trkpt>
<trkpt lat="46.49401" lon="6.72046"><ele>485.2</ele><time>2016-10-18T14:00:10Z</time></trkpt>
<trkpt lat="46.49407" lon="6.7207"><ele>486.2</ele><time>2016-10-18T14:00:17Z</time></trkpt>
<trkpt lat="46.49411" lon="6.721"><ele>485.2</ele><time>2016-10-18T14:00:23Z</time></trkpt>
<trkpt lat="46.49411" lon="6.72126"><ele>484.2</ele><time>2016-10-18T14:00:26Z</time></trkpt>
<trkpt lat="46.49413" lon="6.72155"><ele>483.4</ele><time>2016-10-18T14:00:29Z</time></trkpt>
<trkpt lat="46.49414" lon="6.72186"><ele>482.6</ele><time>2016-10-18T14:00:32Z</time></trkpt>
<trkpt lat="46.49416" lon="6.72219"><ele>482.8</ele><time>2016-10-18T14:00:35Z</time></trkpt>
<trkpt lat="46.49417" lon="6.7225"><ele>483</ele><time>2016-10-18T14:00:38Z</time></trkpt>
<trkpt lat="46.49419" lon="6.72279"><ele>483.4</ele><time>2016-10-18T14:00:41Z</time></trkpt>
<trkpt lat="46.4942" lon="6.72307"><ele>483.6</ele><time>2016-10-18T14:00:44Z</time></trkpt>
<trkpt lat="46.49421" lon="6.72335"><ele>483.8</ele><time>2016-10-18T14:00:47Z</time></trkpt>
<trkpt lat="46.49423" lon="6.72363"><ele>484.2</ele><time>2016-10-18T14:00:50Z</time></trkpt>
<trkpt lat="46.49424" lon="6.7239"><ele>484.4</ele><time>2016-10-18T14:00:53Z</time></trkpt>
<trkpt lat="46.49426" lon="6.72424"><ele>485.2</ele><time>2016-10-18T14:00:57Z</time></trkpt>
<trkpt lat="46.49429" lon="6.72455"><ele>485.8</ele><time>2016-10-18T14:01:01Z</time></trkpt>
<trkpt lat="46.4943" lon="6.7247"><ele>486.2</ele><time>2016-10-18T14:01:03Z</time></trkpt>
<trkpt lat="46.4943" lon="6.72497"><ele>486.8</ele><time>2016-10-18T14:01:07Z</time></trkpt>
<trkpt lat="46.49433" lon="6.72527"><ele>487.6</ele><time>2016-10-18T14:01:12Z</time></trkpt>
<trkpt lat="46.49444" lon="6.72553"><ele>488.2</ele><time>2016-10-18T14:01:17Z</time></trkpt>
<trkpt lat="46.49457" lon="6.72577"><ele>488.8</ele><time>2016-10-18T14:01:22Z</time></trkpt>
<trkpt lat="46.49463" lon="6.72587"><ele>489.4</ele><time>2016-10-18T14:01:25Z</time></trkpt>
<trkpt lat="46.49482" lon="6.72598"><ele>490.4</ele><time>2016-10-18T14:01:31Z</time></trkpt>
<trkpt lat="46.49486" lon="6.72599"><ele>490.8</ele><time>2016-10-18T14:01:32Z</time></trkpt>
<trkpt lat="46.49497" lon="6.72622"><ele>492.6</ele><time>2016-10-18T14:01:38Z</time></trkpt>
<trkpt lat="46.49488" lon="6.72641"><ele>494</ele><time>2016-10-18T14:01:43Z</time></trkpt>
<trkpt lat="46.49473" lon="6.72661"><ele>496</ele><time>2016-10-18T14:01:50Z</time></trkpt>
<trkpt lat="46.49454" lon="6.72697"><ele>499</ele><time>2016-10-18T14:02:02Z</time></trkpt>
<trkpt lat="46.49445" lon="6.72719"><ele>500.6</ele><time>2016-10-18T14:02:09Z</time></trkpt>
<trkpt lat="46.49442" lon="6.72725"><ele>501.2</ele><time>2016-10-18T14:02:11Z</time></trkpt>
<trkpt lat="46.49439" lon="6.7273"><ele>501.6</ele><time>2016-10-18T14:02:13Z</time></trkpt>
<trkpt lat="46.49436" lon="6.72735"><ele>502.2</ele><time>2016-10-18T14:02:15Z</time></trkpt>
<trkpt lat="46.49432" lon="6.7274"><ele>502.6</ele><time>2016-10-18T14:02:17Z</time></trkpt>
<trkpt lat="46.4943" lon="6.72743"><ele>502.8</ele><time>2016-10-18T14:02:18Z</time></trkpt>
<trkpt lat="46.49428" lon="6.72745"><ele>503</ele><time>2016-10-18T14:02:19Z</time></trkpt>
<trkpt lat="46.49426" lon="6.72747"><ele>503.2</ele><time>2016-10-18T14:02:20Z</time></trkpt>
<trkpt lat="46.49412" lon="6.72762"><ele>504.6</ele><time>2016-10-18T14:02:27Z</time></trkpt>
<trkpt lat="46.49402" lon="6.72771"><ele>506</ele><time>2016-10-18T14:02:32Z</time></trkpt>
<trkpt lat="46.49378" lon="6.72795"><ele>508.6</ele><time>2016-10-18T14:02:44Z</time></trkpt>
<trkpt lat="46.49373" lon="6.72821"><ele>509.8</ele><time>2016-10-18T14:02:52Z</time></trkpt>
<trkpt lat="46.49382" lon="6.72845"><ele>511</ele><time>2016-10-18T14:03:00Z</time></trkpt>
<trkpt lat="46.49401" lon="6.72853"><ele>512.4</ele><time>2016-10-18T14:03:08Z</time></trkpt>
<trkpt lat="46.49417" lon="6.72838"><ele>513.4</ele><time>2016-10-18T14:03:16Z</time></trkpt>
<trkpt lat="46.49431" lon="6.72818"><ele>515</ele><time>2016-10-18T14:03:24Z</time></trkpt>
<trkpt lat="46.49446" lon="6.72797"><ele>516.6</ele><time>2016-10-18T14:03:32Z</time></trkpt>
<trkpt lat="46.49457" lon="6.72791"><ele>518</ele><time>2016-10-18T14:03:38Z</time></trkpt>
<trkpt lat="46.4946" lon="6.72797"><ele>518.8</ele><time>2016-10-18T14:03:42Z</time></trkpt>
<trkpt lat="46.4946" lon="6.728"><ele>519.2</ele><time>2016-10-18T14:03:44Z</time></trkpt>
<trkpt lat="46.49466" lon="6.72817"><ele>521.4</ele><time>2016-10-18T14:03:55Z</time></trkpt>
<trkpt lat="46.49474" lon="6.72837"><ele>523.4</ele><time>2016-10-18T14:04:08Z</time></trkpt>
<trkpt lat="46.49477" lon="6.72864"><ele>525.6</ele><time>2016-10-18T14:04:25Z</time></trkpt>
<trkpt lat="46.49483" lon="6.7289"><ele>529.2</ele><time>2016-10-18T14:04:41Z</time></trkpt>
<trkpt lat="46.49496" lon="6.72912"><ele>530.8</ele><time>2016-10-18T14:04:54Z</time></trkpt>
<trkpt lat="46.49512" lon="6.72945"><ele>531.8</ele><time>2016-10-18T14:05:06Z</time></trkpt>
<trkpt lat="46.49525" lon="6.72965"><ele>532.2</ele><time>2016-10-18T14:05:14Z</time></trkpt>
<trkpt lat="46.49532" lon="6.72967"><ele>534.4</ele><time>2016-10-18T14:05:20Z</time></trkpt>
<trkpt lat="46.49548" lon="6.72975"><ele>544</ele><time>2016-10-18T14:05:36Z</time></trkpt>
<trkpt lat="46.49564" lon="6.72989"><ele>545.8</ele><time>2016-10-18T14:05:48Z</time></trkpt>
<trkpt lat="46.49573" lon="6.72997"><ele>545.8</ele><time>2016-10-18T14:05:58Z</time></trkpt>
<trkpt lat="46.49587" lon="6.73005"><ele>548.6</ele><time>2016-10-18T14:06:12Z</time></trkpt>
<trkpt lat="46.49596" lon="6.73012"><ele>549</ele><time>2016-10-18T14:06:24Z</time></trkpt>
<trkpt lat="46.496" lon="6.73017"><ele>549.8</ele><time>2016-10-18T14:06:30Z</time></trkpt>
<trkpt lat="46.49608" lon="6.73027"><ele>551.8</ele><time>2016-10-18T14:06:45Z</time></trkpt>
<trkpt lat="46.49619" lon="6.73047"><ele>554.8</ele><time>2016-10-18T14:07:09Z</time></trkpt>
<trkpt lat="46.49634" lon="6.73062"><ele>558.4</ele><time>2016-10-18T14:07:33Z</time></trkpt>
<trkpt lat="46.49649" lon="6.73069"><ele>560.2</ele><time>2016-10-18T14:07:50Z</time></trkpt>
<trkpt lat="46.49658" lon="6.73099"><ele>564</ele><time>2016-10-18T14:08:09Z</time></trkpt>
<trkpt lat="46.49666" lon="6.73126"><ele>564.6</ele><time>2016-10-18T14:08:18Z</time></trkpt>
<trkpt lat="46.49677" lon="6.73145"><ele>565</ele><time>2016-10-18T14:08:25Z</time></trkpt>
<trkpt lat="46.49695" lon="6.73156"><ele>566.4</ele><time>2016-10-18T14:08:33Z</time></trkpt>
<trkpt lat="46.497" lon="6.73157"><ele>567.2</ele><time>2016-10-18T14:08:36Z</time></trkpt>
<trkpt lat="46.4971" lon="6.7316"><ele>569</ele><time>2016-10-18T14:08:42Z</time></trkpt>
<trkpt lat="46.49729" lon="6.73161"><ele>572.8</ele><time>2016-10-18T14:08:54Z</time></trkpt>
<trkpt lat="46.49748" lon="6.7317"><ele>574.8</ele><time>2016-10-18T14:09:05Z</time></trkpt>
<trkpt lat="46.49766" lon="6.73178"><ele>575.2</ele><time>2016-10-18T14:09:12Z</time></trkpt>
<trkpt lat="46.49783" lon="6.73182"><ele>576.6</ele><time>2016-10-18T14:09:19Z</time></trkpt>
<trkpt lat="46.49801" lon="6.73185"><ele>578.2</ele><time>2016-10-18T14:09:27Z</time></trkpt>
<trkpt lat="46.49819" lon="6.73187"><ele>580.4</ele><time>2016-10-18T14:09:36Z</time></trkpt>
<trkpt lat="46.49837" lon="6.73184"><ele>582.8</ele><time>2016-10-18T14:09:46Z</time></trkpt>
<trkpt lat="46.49854" lon="6.73174"><ele>583.2</ele><time>2016-10-18T14:09:53Z</time></trkpt>
<trkpt lat="46.49865" lon="6.73173"><ele>582.8</ele><time>2016-10-18T14:09:57Z</time></trkpt>
<trkpt lat="46.49871" lon="6.73185"><ele>582.4</ele><time>2016-10-18T14:10:01Z</time></trkpt>
<trkpt lat="46.49879" lon="6.73213"><ele>584.4</ele><time>2016-10-18T14:10:09Z</time></trkpt>
<trkpt lat="46.49891" lon="6.73237"><ele>586.4</ele><time>2016-10-18T14:10:17Z</time></trkpt>
<trkpt lat="46.49903" lon="6.73258"><ele>587.6</ele><time>2016-10-18T14:10:24Z</time></trkpt>
<trkpt lat="46.49914" lon="6.73281"><ele>588.2</ele><time>2016-10-18T14:10:30Z</time></trkpt>
<trkpt lat="46.49922" lon="6.73305"><ele>588.6</ele><time>2016-10-18T14:10:35Z</time></trkpt>
<trkpt lat="46.49929" lon="6.7333"><ele>588.8</ele><time>2016-10-18T14:10:40Z</time></trkpt>
<trkpt lat="46.49936" lon="6.73354"><ele>589.2</ele><time>2016-10-18T14:10:45Z</time></trkpt>
<trkpt lat="46.49944" lon="6.7338"><ele>589.6</ele><time>2016-10-18T14:10:50Z</time></trkpt>
<trkpt lat="46.49959" lon="6.7342"><ele>590.2</ele><time>2016-10-18T14:10:58Z</time></trkpt>
<trkpt lat="46.49972" lon="6.73441"><ele>590.8</ele><time>2016-10-18T14:11:03Z</time></trkpt>
<trkpt lat="46.49988" lon="6.73452"><ele>591.8</ele><time>2016-10-18T14:11:08Z</time></trkpt>
<trkpt lat="46.50007" lon="6.73454"><ele>595</ele><time>2016-10-18T14:11:21Z</time></trkpt>
<trkpt lat="46.50023" lon="6.73448"><ele>599</ele><time>2016-10-18T14:11:35Z</time></trkpt>
<trkpt lat="46.50038" lon="6.73432"><ele>603.2</ele><time>2016-10-18T14:11:51Z</time></trkpt>
<trkpt lat="46.50048" lon="6.73418"><ele>606</ele><time>2016-10-18T14:12:04Z</time></trkpt>
<trkpt lat="46.50054" lon="6.734"><ele>608.8</ele><time>2016-10-18T14:12:17Z</time></trkpt>
<trkpt lat="46.5006" lon="6.73386"><ele>611</ele><time>2016-10-18T14:12:28Z</time></trkpt>
<trkpt lat="46.50064" lon="6.73375"><ele>612.8</ele><time>2016-10-18T14:12:36Z</time></trkpt>
<trkpt lat="46.50069" lon="6.7335"><ele>615.2</ele><time>2016-10-18T14:12:53Z</time></trkpt>
<trkpt lat="46.5007" lon="6.73323"><ele>617.4</ele><time>2016-10-18T14:13:11Z</time></trkpt>
<trkpt lat="46.50069" lon="6.73293"><ele>620.2</ele><time>2016-10-18T14:13:30Z</time></trkpt>
<trkpt lat="46.50065" lon="6.7327"><ele>624.2</ele><time>2016-10-18T14:13:44Z</time></trkpt>
<trkpt lat="46.50066" lon="6.73267"><ele>624.6</ele><time>2016-10-18T14:13:46Z</time></trkpt>
<trkpt lat="46.5007" lon="6.73263"><ele>625.6</ele><time>2016-10-18T14:13:50Z</time></trkpt>
<trkpt lat="46.50088" lon="6.73265"><ele>629.6</ele><time>2016-10-18T14:14:06Z</time></trkpt>
<trkpt lat="46.50096" lon="6.73268"><ele>631.4</ele><time>2016-10-18T14:14:13Z</time></trkpt>
<trkpt lat="46.50112" lon="6.7328"><ele>633.6</ele><time>2016-10-18T14:14:28Z</time></trkpt>
<trkpt lat="46.50128" lon="6.73294"><ele>634.8</ele><time>2016-10-18T14:14:39Z</time></trkpt>
<trkpt lat="46.50144" lon="6.73286"><ele>636.4</ele><time>2016-10-18T14:14:50Z</time></trkpt>
<trkpt lat="46.50148" lon="6.73272"><ele>639.2</ele><time>2016-10-18T14:15:00Z</time></trkpt>
<trkpt lat="46.50165" lon="6.73267"><ele>642.4</ele><time>2016-10-18T14:15:17Z</time></trkpt>
<trkpt lat="46.50172" lon="6.73269"><ele>643.4</ele><time>2016-10-18T14:15:24Z</time></trkpt>
<trkpt lat="46.50188" lon="6.73274"><ele>647</ele><time>2016-10-18T14:15:39Z</time></trkpt>
<trkpt lat="46.50205" lon="6.73284"><ele>649.8</ele><time>2016-10-18T14:15:55Z</time></trkpt>
<trkpt lat="46.50221" lon="6.73298"><ele>652</ele><time>2016-10-18T14:16:10Z</time></trkpt>
<trkpt lat="46.50223" lon="6.73299"><ele>652</ele><time>2016-10-18T14:16:12Z</time></trkpt>
<trkpt lat="46.50231" lon="6.73302"><ele>652</ele><time>2016-10-18T14:16:18Z</time></trkpt>
<trkpt lat="46.50246" lon="6.73318"><ele>654.6</ele><time>2016-10-18T14:16:32Z</time></trkpt>
<trkpt lat="46.50264" lon="6.73339"><ele>657.4</ele><time>2016-10-18T14:16:52Z</time></trkpt>
<trkpt lat="46.50276" lon="6.73351"><ele>659.4</ele><time>2016-10-18T14:17:03Z</time></trkpt>
<trkpt lat="46.50283" lon="6.73359"><ele>661.2</ele><time>2016-10-18T14:17:10Z</time></trkpt>
<trkpt lat="46.50291" lon="6.73368"><ele>662.6</ele><time>2016-10-18T14:17:18Z</time></trkpt>
<trkpt lat="46.50295" lon="6.73373"><ele>663.6</ele><time>2016-10-18T14:17:22Z</time></trkpt>
<trkpt lat="46.503" lon="6.73378"><ele>664.8</ele><time>2016-10-18T14:17:27Z</time></trkpt>
<trkpt lat="46.50304" lon="6.73383"><ele>666.4</ele><time>2016-10-18T14:17:32Z</time></trkpt>
<trkpt lat="46.50314" lon="6.734"><ele>670.8</ele><time>2016-10-18T14:17:46Z</time></trkpt>
<trkpt lat="46.50318" lon="6.73406"><ele>672.4</ele><time>2016-10-18T14:17:52Z</time></trkpt>
<trkpt lat="46.50331" lon="6.73426"><ele>674.8</ele><time>2016-10-18T14:18:10Z</time></trkpt>
<trkpt lat="46.50337" lon="6.73435"><ele>676.2</ele><time>2016-10-18T14:18:19Z</time></trkpt>
<trkpt lat="46.50344" lon="6.73447"><ele>678.4</ele><time>2016-10-18T14:18:30Z</time></trkpt>
<trkpt lat="46.50345" lon="6.73448"><ele>678.6</ele><time>2016-10-18T14:18:31Z</time></trkpt>
<trkpt lat="46.50353" lon="6.73458"><ele>680.6</ele><time>2016-10-18T14:18:42Z</time></trkpt>
<trkpt lat="46.50367" lon="6.73481"><ele>684.4</ele><time>2016-10-18T14:19:06Z</time></trkpt>
<trkpt lat="46.50374" lon="6.7349"><ele>686.2</ele><time>2016-10-18T14:19:18Z</time></trkpt>
<trkpt lat="46.5039" lon="6.73486"><ele>690.6</ele><time>2016-10-18T14:19:41Z</time></trkpt>
<trkpt lat="46.50401" lon="6.73471"><ele>693.8</ele><time>2016-10-18T14:20:00Z</time></trkpt>
<trkpt lat="46.5041" lon="6.73448"><ele>699.4</ele><time>2016-10-18T14:20:23Z</time></trkpt>
<trkpt lat="46.50411" lon="6.73437"><ele>701.2</ele><time>2016-10-18T14:20:31Z</time></trkpt>
<trkpt lat="46.50409" lon="6.73405"><ele>702.6</ele><time>2016-10-18T14:20:50Z</time></trkpt>
<trkpt lat="46.50425" lon="6.73398"><ele>705.2</ele><time>2016-10-18T14:21:04Z</time></trkpt>
<trkpt lat="46.50443" lon="6.73405"><ele>708.6</ele><time>2016-10-18T14:21:19Z</time></trkpt>
<trkpt lat="46.50461" lon="6.73403"><ele>711</ele><time>2016-10-18T14:21:34Z</time></trkpt>
<trkpt lat="46.50479" lon="6.73404"><ele>712.4</ele><time>2016-10-18T14:21:45Z</time></trkpt>
<trkpt lat="46.50486" lon="6.73402"><ele>713.2</ele><time>2016-10-18T14:21:49Z</time></trkpt>
<trkpt lat="46.50495" lon="6.73395"><ele>714.8</ele><time>2016-10-18T14:21:56Z</time></trkpt>
<trkpt lat="46.50508" lon="6.7338"><ele>715.8</ele><time>2016-10-18T14:22:07Z</time></trkpt>
<trkpt lat="46.50513" lon="6.73377"><ele>716.2</ele><time>2016-10-18T14:22:10Z</time></trkpt>
<trkpt lat="46.50514" lon="6.73376"><ele>716.2</ele><time>2016-10-18T14:22:11Z</time></trkpt>
<trkpt lat="46.50525" lon="6.73355"><ele>716.8</ele><time>2016-10-18T14:22:22Z</time></trkpt>
<trkpt lat="46.50516" lon="6.73333"><ele>715.2</ele><time>2016-10-18T14:22:28Z</time></trkpt>
<trkpt lat="46.50501" lon="6.73307"><ele>712.4</ele><time>2016-10-18T14:22:32Z</time></trkpt>
<trkpt lat="46.50488" lon="6.73285"><ele>710.2</ele><time>2016-10-18T14:22:35Z</time></trkpt>
<trkpt lat="46.50484" lon="6.73276"><ele>709.4</ele><time>2016-10-18T14:22:36Z</time></trkpt>
<trkpt lat="46.5048" lon="6.73268"><ele>708.8</ele><time>2016-10-18T14:22:37Z</time></trkpt>
<trkpt lat="46.50472" lon="6.73254"><ele>707.8</ele><time>2016-10-18T14:22:39Z</time></trkpt>
<trkpt lat="46.50464" lon="6.7324"><ele>706.8</ele><time>2016-10-18T14:22:41Z</time></trkpt>
<trkpt lat="46.50455" lon="6.73226"><ele>705.8</ele><time>2016-10-18T14:22:43Z</time></trkpt>
<trkpt lat="46.50445" lon="6.7321"><ele>704.6</ele><time>2016-10-18T14:22:45Z</time></trkpt>
<trkpt lat="46.50429" lon="6.73181"><ele>701.8</ele><time>2016-10-18T14:22:48Z</time></trkpt>
<trkpt lat="46.50418" lon="6.73161"><ele>700.8</ele><time>2016-10-18T14:22:50Z</time></trkpt>
<trkpt lat="46.50406" lon="6.7314"><ele>700</ele><time>2016-10-18T14:22:52Z</time></trkpt>
<trkpt lat="46.50394" lon="6.73121"><ele>699.4</ele><time>2016-10-18T14:22:54Z</time></trkpt>
<trkpt lat="46.50378" lon="6.73094"><ele>699.2</ele><time>2016-10-18T14:22:57Z</time></trkpt>
<trkpt lat="46.50364" lon="6.73069"><ele>698.6</ele><time>2016-10-18T14:23:00Z</time></trkpt>
<trkpt lat="46.50349" lon="6.73044"><ele>698.2</ele><time>2016-10-18T14:23:03Z</time></trkpt>
<trkpt lat="46.50335" lon="6.7302"><ele>698.4</ele><time>2016-10-18T14:23:06Z</time></trkpt>
<trkpt lat="46.50323" lon="6.72998"><ele>699.8</ele><time>2016-10-18T14:23:09Z</time></trkpt>
<trkpt lat="46.50316" lon="6.72976"><ele>702.6</ele><time>2016-10-18T14:23:14Z</time></trkpt>
<trkpt lat="46.50314" lon="6.72965"><ele>703.4</ele><time>2016-10-18T14:23:18Z</time></trkpt>
<trkpt lat="46.50314" lon="6.72963"><ele>703.6</ele><time>2016-10-18T14:23:19Z</time></trkpt>
<trkpt lat="46.50303" lon="6.72939"><ele>704</ele><time>2016-10-18T14:23:27Z</time></trkpt>
<trkpt lat="46.503" lon="6.72937"><ele>703.8</ele><time>2016-10-18T14:23:28Z</time></trkpt>
<trkpt lat="46.50283" lon="6.72922"><ele>703.2</ele><time>2016-10-18T14:23:33Z</time></trkpt>
<trkpt lat="46.50273" lon="6.7291"><ele>702.2</ele><time>2016-10-18T14:23:36Z</time></trkpt>
<trkpt lat="46.50259" lon="6.72893"><ele>701</ele><time>2016-10-18T14:23:40Z</time></trkpt>
<trkpt lat="46.50251" lon="6.72882"><ele>700.4</ele><time>2016-10-18T14:23:42Z</time></trkpt>
<trkpt lat="46.50232" lon="6.7286"><ele>698.6</ele><time>2016-10-18T14:23:46Z</time></trkpt>
<trkpt lat="46.50214" lon="6.72843"><ele>697.8</ele><time>2016-10-18T14:23:49Z</time></trkpt>
<trkpt lat="46.50208" lon="6.72838"><ele>698.2</ele><time>2016-10-18T14:23:50Z</time></trkpt>
<trkpt lat="46.50189" lon="6.72824"><ele>697.6</ele><time>2016-10-18T14:23:53Z</time></trkpt>
<trkpt lat="46.50176" lon="6.72816"><ele>697.8</ele><time>2016-10-18T14:23:55Z</time></trkpt>
<trkpt lat="46.50165" lon="6.72807"><ele>697</ele><time>2016-10-18T14:23:57Z</time></trkpt>
<trkpt lat="46.50156" lon="6.72802"><ele>696.6</ele><time>2016-10-18T14:23:59Z</time></trkpt>
<trkpt lat="46.50147" lon="6.72805"><ele>696.2</ele><time>2016-10-18T14:24:01Z</time></trkpt>
<trkpt lat="46.50142" lon="6.72809"><ele>696</ele><time>2016-10-18T14:24:02Z</time></trkpt>
<trkpt lat="46.50122" lon="6.72822"><ele>694.8</ele><time>2016-10-18T14:24:06Z</time></trkpt>
<trkpt lat="46.50105" lon="6.72832"><ele>693.6</ele><time>2016-10-18T14:24:09Z</time></trkpt>
<trkpt lat="46.501" lon="6.72836"><ele>693.6</ele><time>2016-10-18T14:24:10Z</time></trkpt>
<trkpt lat="46.50091" lon="6.72843"><ele>693.2</ele><time>2016-10-18T14:24:12Z</time></trkpt>
<trkpt lat="46.5008" lon="6.72851"><ele>692.2</ele><time>2016-10-18T14:24:15Z</time></trkpt>
<trkpt lat="46.50066" lon="6.72858"><ele>689</ele><time>2016-10-18T14:24:19Z</time></trkpt>
<trkpt lat="46.50049" lon="6.72863"><ele>685.4</ele><time>2016-10-18T14:24:23Z</time></trkpt>
<trkpt lat="46.5003" lon="6.72868"><ele>681.6</ele><time>2016-10-18T14:24:27Z</time></trkpt>
<trkpt lat="46.5001" lon="6.72874"><ele>675.8</ele><time>2016-10-18T14:24:31Z</time></trkpt>
<trkpt lat="46.49989" lon="6.72879"><ele>670</ele><time>2016-10-18T14:24:35Z</time></trkpt>
<trkpt lat="46.49966" lon="6.72887"><ele>664.4</ele><time>2016-10-18T14:24:39Z</time></trkpt>
<trkpt lat="46.49961" lon="6.7289"><ele>663</ele><time>2016-10-18T14:24:40Z</time></trkpt>
<trkpt lat="46.49944" lon="6.72898"><ele>659.4</ele><time>2016-10-18T14:24:44Z</time></trkpt>
<trkpt lat="46.49941" lon="6.72901"><ele>658.6</ele><time>2016-10-18T14:24:45Z</time></trkpt>
<trkpt lat="46.49936" lon="6.72917"><ele>655.2</ele><time>2016-10-18T14:24:49Z</time></trkpt>
<trkpt lat="46.49931" lon="6.72931"><ele>653.4</ele><time>2016-10-18T14:24:54Z</time></trkpt>
<trkpt lat="46.49925" lon="6.72936"><ele>654.2</ele><time>2016-10-18T14:24:57Z</time></trkpt>
<trkpt lat="46.49917" lon="6.72932"><ele>653.2</ele><time>2016-10-18T14:25:01Z</time></trkpt>
<trkpt lat="46.4991" lon="6.72924"><ele>651.8</ele><time>2016-10-18T14:25:04Z</time></trkpt>
<trkpt lat="46.49892" lon="6.72919"><ele>648</ele><time>2016-10-18T14:25:11Z</time></trkpt>
<trkpt lat="46.49874" lon="6.72919"><ele>643</ele><time>2016-10-18T14:25:17Z</time></trkpt>
<trkpt lat="46.49855" lon="6.72915"><ele>637</ele><time>2016-10-18T14:25:23Z</time></trkpt>
<trkpt lat="46.49835" lon="6.7291"><ele>631.4</ele><time>2016-10-18T14:25:28Z</time></trkpt>
<trkpt lat="46.49814" lon="6.72905"><ele>624.6</ele><time>2016-10-18T14:25:33Z</time></trkpt>
<trkpt lat="46.49799" lon="6.72896"><ele>619</ele><time>2016-10-18T14:25:38Z</time></trkpt>
<trkpt lat="46.49781" lon="6.72885"><ele>611.8</ele><time>2016-10-18T14:25:48Z</time></trkpt>
<trkpt lat="46.4976" lon="6.72882"><ele>607</ele><time>2016-10-18T14:25:55Z</time></trkpt>
<trkpt lat="46.49739" lon="6.72878"><ele>601.6</ele><time>2016-10-18T14:26:01Z</time></trkpt>
<trkpt lat="46.4972" lon="6.72875"><ele>596</ele><time>2016-10-18T14:26:07Z</time></trkpt>
<trkpt lat="46.49716" lon="6.72874"><ele>593.4</ele><time>2016-10-18T14:26:10Z</time></trkpt>
<trkpt lat="46.49714" lon="6.72871"><ele>591.4</ele><time>2016-10-18T14:26:13Z</time></trkpt>
<trkpt lat="46.49719" lon="6.72825"><ele>587.4</ele><time>2016-10-18T14:26:23Z</time></trkpt>
<trkpt lat="46.49733" lon="6.72805"><ele>587.6</ele><time>2016-10-18T14:26:28Z</time></trkpt>
<trkpt lat="46.49747" lon="6.72788"><ele>586.2</ele><time>2016-10-18T14:26:33Z</time></trkpt>
<trkpt lat="46.49762" lon="6.72763"><ele>584.2</ele><time>2016-10-18T14:26:37Z</time></trkpt>
<trkpt lat="46.49778" lon="6.7274"><ele>583.2</ele><time>2016-10-18T14:26:42Z</time></trkpt>
<trkpt lat="46.49793" lon="6.7272"><ele>580.4</ele><time>2016-10-18T14:26:46Z</time></trkpt>
<trkpt lat="46.49807" lon="6.72697"><ele>577.4</ele><time>2016-10-18T14:26:50Z</time></trkpt>
<trkpt lat="46.49816" lon="6.7268"><ele>575.8</ele><time>2016-10-18T14:26:53Z</time></trkpt>
<trkpt lat="46.49818" lon="6.7267"><ele>575</ele><time>2016-10-18T14:26:55Z</time></trkpt>
<trkpt lat="46.49804" lon="6.72671"><ele>572.8</ele><time>2016-10-18T14:27:02Z</time></trkpt>
<trkpt lat="46.49789" lon="6.72685"><ele>570.8</ele><time>2016-10-18T14:27:07Z</time></trkpt>
<trkpt lat="46.49775" lon="6.72676"><ele>568.4</ele><time>2016-10-18T14:27:13Z</time></trkpt>
<trkpt lat="46.49767" lon="6.72647"><ele>566</ele><time>2016-10-18T14:27:19Z</time></trkpt>
<trkpt lat="46.49757" lon="6.72614"><ele>562.2</ele><time>2016-10-18T14:27:24Z</time></trkpt>
<trkpt lat="46.49755" lon="6.72605"><ele>562</ele><time>2016-10-18T14:27:25Z</time></trkpt>
<trkpt lat="46.49748" lon="6.72579"><ele>560.4</ele><time>2016-10-18T14:27:28Z</time></trkpt>
<trkpt lat="46.49746" lon="6.72555"><ele>558.6</ele><time>2016-10-18T14:27:32Z</time></trkpt>
<trkpt lat="46.49746" lon="6.72545"><ele>558</ele><time>2016-10-18T14:27:34Z</time></trkpt>
<trkpt lat="46.49749" lon="6.72517"><ele>558.8</ele><time>2016-10-18T14:27:41Z</time></trkpt>
<trkpt lat="46.49746" lon="6.7249"><ele>558.2</ele><time>2016-10-18T14:27:47Z</time></trkpt>
<trkpt lat="46.49742" lon="6.7246"><ele>556.6</ele><time>2016-10-18T14:27:53Z</time></trkpt>
<trkpt lat="46.49737" lon="6.72432"><ele>557.4</ele><time>2016-10-18T14:27:58Z</time></trkpt>
<trkpt lat="46.49731" lon="6.72403"><ele>559.6</ele><time>2016-10-18T14:28:03Z</time></trkpt>
<trkpt lat="46.4972" lon="6.72357"><ele>560.6</ele><time>2016-10-18T14:28:11Z</time></trkpt>
<trkpt lat="46.49714" lon="6.72326"><ele>559.8</ele><time>2016-10-18T14:28:16Z</time></trkpt>
<trkpt lat="46.49712" lon="6.723"><ele>560</ele><time>2016-10-18T14:28:20Z</time></trkpt>
<trkpt lat="46.49709" lon="6.72274"><ele>560.6</ele><time>2016-10-18T14:28:24Z</time></trkpt>
<trkpt lat="46.49703" lon="6.72245"><ele>561.6</ele><time>2016-10-18T14:28:29Z</time></trkpt>
<trkpt lat="46.49692" lon="6.72224"><ele>562.2</ele><time>2016-10-18T14:28:33Z</time></trkpt>
<trkpt lat="46.49686" lon="6.72214"><ele>562.8</ele><time>2016-10-18T14:28:35Z</time></trkpt>
<trkpt lat="46.49682" lon="6.72202"><ele>562.6</ele><time>2016-10-18T14:28:37Z</time></trkpt>
<trkpt lat="46.49677" lon="6.72175"><ele>561.2</ele><time>2016-10-18T14:28:41Z</time></trkpt>
<trkpt lat="46.49675" lon="6.7216"><ele>560.6</ele><time>2016-10-18T14:28:43Z</time></trkpt>
<trkpt lat="46.4967" lon="6.72128"><ele>559.4</ele><time>2016-10-18T14:28:47Z</time></trkpt>
<trkpt lat="46.49667" lon="6.72096"><ele>558.6</ele><time>2016-10-18T14:28:51Z</time></trkpt>
<trkpt lat="46.49664" lon="6.72079"><ele>558.2</ele><time>2016-10-18T14:28:55Z</time></trkpt>
<trkpt lat="46.49657" lon="6.72051"><ele>558.4</ele><time>2016-10-18T14:29:01Z</time></trkpt>
<trkpt lat="46.49651" lon="6.72026"><ele>558.8</ele><time>2016-10-18T14:29:06Z</time></trkpt>
<trkpt lat="46.49648" lon="6.71999"><ele>559.2</ele><time>2016-10-18T14:29:11Z</time></trkpt>
<trkpt lat="46.49647" lon="6.71971"><ele>559.4</ele><time>2016-10-18T14:29:16Z</time></trkpt>
<trkpt lat="46.49646" lon="6.71944"><ele>560</ele><time>2016-10-18T14:29:21Z</time></trkpt>
<trkpt lat="46.49643" lon="6.71916"><ele>561</ele><time>2016-10-18T14:29:27Z</time></trkpt>
<trkpt lat="46.49644" lon="6.71895"><ele>562</ele><time>2016-10-18T14:29:32Z</time></trkpt>
<trkpt lat="46.49644" lon="6.71868"><ele>563.2</ele><time>2016-10-18T14:29:38Z</time></trkpt>
<trkpt lat="46.49645" lon="6.71855"><ele>563.8</ele><time>2016-10-18T14:29:41Z</time></trkpt>
<trkpt lat="46.49646" lon="6.71834"><ele>564.6</ele><time>2016-10-18T14:29:46Z</time></trkpt>
<trkpt lat="46.49649" lon="6.71808"><ele>566</ele><time>2016-10-18T14:29:52Z</time></trkpt>
<trkpt lat="46.49653" lon="6.71781"><ele>567.4</ele><time>2016-10-18T14:29:59Z</time></trkpt>
<trkpt lat="46.49659" lon="6.71753"><ele>569</ele><time>2016-10-18T14:30:06Z</time></trkpt>
<trkpt lat="46.49663" lon="6.71743"><ele>569.6</ele><time>2016-10-18T14:30:09Z</time></trkpt>
<trkpt lat="46.49666" lon="6.71736"><ele>570</ele><time>2016-10-18T14:30:11Z</time></trkpt>
<trkpt lat="46.49672" lon="6.71728"><ele>570.6</ele><time>2016-10-18T14:30:14Z</time></trkpt>
<trkpt lat="46.49677" lon="6.71724"><ele>571</ele><time>2016-10-18T14:30:16Z</time></trkpt>
<trkpt lat="46.49693" lon="6.71711"><ele>572.2</ele><time>2016-10-18T14:30:23Z</time></trkpt>
<trkpt lat="46.497" lon="6.717"><ele>572</ele><time>2016-10-18T14:30:30Z</time></trkpt>
<trkpt lat="46.4968" lon="6.71704"><ele>569.4</ele><time>2016-10-18T14:30:36Z</time></trkpt>
<trkpt lat="46.49672" lon="6.71703"><ele>568.4</ele><time>2016-10-18T14:30:39Z</time></trkpt>
<trkpt lat="46.49661" lon="6.71699"><ele>566.8</ele><time>2016-10-18T14:30:44Z</time></trkpt>
<trkpt lat="46.49649" lon="6.71696"><ele>565.6</ele><time>2016-10-18T14:30:51Z</time></trkpt>
<trkpt lat="46.49648" lon="6.71696"><ele>565.6</ele><time>2016-10-18T14:31:03Z</time></trkpt>
<trkpt lat="46.49649" lon="6.71697"><ele>565.8</ele><time>2016-10-18T14:31:09Z</time></trkpt>
<trkpt lat="46.49649" lon="6.71697"><ele>565.4</ele><time>2016-10-18T14:31:31Z</time></trkpt>
<trkpt lat="46.49649" lon="6.71696"><ele>565</ele><time>2016-10-18T14:32:02Z</time></trkpt>
<trkpt lat="46.49649" lon="6.71697"><ele>564.8</ele><time>2016-10-18T14:32:11Z</time></trkpt>
<trkpt lat="46.49649" lon="6.71697"><ele>564.6</ele><time>2016-10-18T14:32:20Z</time></trkpt>
<trkpt lat="46.49649" lon="6.71697"><ele>563.8</ele><time>2016-10-18T14:32:46Z</time></trkpt>
<trkpt lat="46.49649" lon="6.71698"><ele>563.4</ele><time>2016-10-18T14:33:21Z</time></trkpt>
<trkpt lat="46.49649" lon="6.71698"><ele>563.2</ele><time>2016-10-18T14:33:48Z</time></trkpt>
<trkpt lat="46.49648" lon="6.71695"><ele>563.2</ele><time>2016-10-18T14:34:23Z</time></trkpt>
<trkpt lat="46.49648" lon="6.71695"><ele>563.2</ele><time>2016-10-18T14:34:24Z</time></trkpt>
<trkpt lat="46.4965" lon="6.71697"><ele>562.8</ele><time>2016-10-18T14:34:59Z</time></trkpt>
<trkpt lat="46.4965" lon="6.71698"><ele>562.8</ele><time>2016-10-18T14:35:03Z</time></trkpt>
<trkpt lat="46.49651" lon="6.71699"><ele>562.6</ele><time>2016-10-18T14:35:10Z</time></trkpt>
<trkpt lat="46.49651" lon="6.71699"><ele>562.2</ele><time>2016-10-18T14:35:20Z</time></trkpt>
<trkpt lat="46.49651" lon="6.71698"><ele>562.2</ele><time>2016-10-18T14:35:25Z</time></trkpt>
<trkpt lat="46.4965" lon="6.71698"><ele>561.8</ele><time>2016-10-18T14:35:35Z</time></trkpt>
<trkpt lat="46.4965" lon="6.71697"><ele>562</ele><time>2016-10-18T14:35:47Z</time></trkpt>
<trkpt lat="46.4965" lon="6.71696"><ele>562</ele><time>2016-10-18T14:36:01Z</time></trkpt>
<trkpt lat="46.4965" lon="6.71696"><ele>562</ele><time>2016-10-18T14:36:08Z</time></trkpt>
<trkpt lat="46.4965" lon="6.71697"><ele>562.2</ele><time>2016-10-18T14:36:39Z</time></trkpt>
<trkpt lat="46.4965" lon="6.71696"><ele>562</ele><time>2016-10-18T14:36:48Z</time></trkpt>
<trkpt lat="46.49658" lon="6.71668"><ele>557.6</ele><time>2016-10-18T14:36:53Z</time></trkpt>
<trkpt lat="46.49666" lon="6.71643"><ele>555.6</ele><time>2016-10-18T14:36:56Z</time></trkpt>
<trkpt lat="46.49675" lon="6.71611"><ele>553.8</ele><time>2016-10-18T14:37:00Z</time></trkpt>
<trkpt lat="46.49686" lon="6.71584"><ele>553</ele><time>2016-10-18T14:37:04Z</time></trkpt>
<trkpt lat="46.49697" lon="6.7156"><ele>553</ele><time>2016-10-18T14:37:08Z</time></trkpt>
<trkpt lat="46.4971" lon="6.71538"><ele>554.2</ele><time>2016-10-18T14:37:13Z</time></trkpt>
<trkpt lat="46.49722" lon="6.71516"><ele>554.2</ele><time>2016-10-18T14:37:17Z</time></trkpt>
<trkpt lat="46.49738" lon="6.7149"><ele>553.8</ele><time>2016-10-18T14:37:21Z</time></trkpt>
<trkpt lat="46.49751" lon="6.7147"><ele>553.4</ele><time>2016-10-18T14:37:24Z</time></trkpt>
<trkpt lat="46.49765" lon="6.71451"><ele>553.2</ele><time>2016-10-18T14:37:27Z</time></trkpt>
<trkpt lat="46.49778" lon="6.71435"><ele>553.2</ele><time>2016-10-18T14:37:30Z</time></trkpt>
<trkpt lat="46.49786" lon="6.71426"><ele>552.8</ele><time>2016-10-18T14:37:33Z</time></trkpt>
<trkpt lat="46.49802" lon="6.71409"><ele>552.8</ele><time>2016-10-18T14:37:41Z</time></trkpt>
<trkpt lat="46.49802" lon="6.71409"><ele>552.6</ele><time>2016-10-18T14:37:42Z</time></trkpt>
<trkpt lat="46.49802" lon="6.71408"><ele>552.8</ele><time>2016-10-18T14:37:46Z</time></trkpt>
<trkpt lat="46.49801" lon="6.71408"><ele>553.2</ele><time>2016-10-18T14:37:50Z</time></trkpt>
<trkpt lat="46.49801" lon="6.71408"><ele>553</ele><time>2016-10-18T14:37:54Z</time></trkpt>
<trkpt lat="46.49807" lon="6.71402"><ele>554</ele><time>2016-10-18T14:38:03Z</time></trkpt>
<trkpt lat="46.49807" lon="6.71402"><ele>554</ele><time>2016-10-18T14:38:04Z</time></trkpt>
<trkpt lat="46.4981" lon="6.714"><ele>553.8</ele><time>2016-10-18T14:38:08Z</time></trkpt>
<trkpt lat="46.49811" lon="6.714"><ele>553.8</ele><time>2016-10-18T14:38:11Z</time></trkpt>
<trkpt lat="46.49815" lon="6.71394"><ele>553.8</ele><time>2016-10-18T14:38:20Z</time></trkpt>
<trkpt lat="46.49816" lon="6.71391"><ele>553.6</ele><time>2016-10-18T14:38:22Z</time></trkpt>
<trkpt lat="46.49824" lon="6.71381"><ele>551.8</ele><time>2016-10-18T14:38:38Z</time></trkpt>
<trkpt lat="46.49813" lon="6.71368"><ele>549.8</ele><time>2016-10-18T14:38:44Z</time></trkpt>
<trkpt lat="46.49812" lon="6.71364"><ele>549.4</ele><time>2016-10-18T14:38:48Z</time></trkpt>
<trkpt lat="46.49815" lon="6.71365"><ele>547.6</ele><time>2016-10-18T14:39:09Z</time></trkpt>
<trkpt lat="46.49814" lon="6.7137"><ele>547.2</ele><time>2016-10-18T14:39:16Z</time></trkpt>
<trkpt lat="46.49815" lon="6.71373"><ele>547.6</ele><time>2016-10-18T14:39:19Z</time></trkpt>
<trkpt lat="46.49821" lon="6.71374"><ele>549.2</ele><time>2016-10-18T14:39:25Z</time></trkpt>
<trkpt lat="46.49827" lon="6.7138"><ele>551.2</ele><time>2016-10-18T14:39:31Z</time></trkpt>
<trkpt lat="46.4984" lon="6.71387"><ele>553.6</ele><time>2016-10-18T14:39:40Z</time></trkpt>
<trkpt lat="46.49846" lon="6.71387"><ele>555.2</ele><time>2016-10-18T14:39:44Z</time></trkpt>
<trkpt lat="46.49848" lon="6.71388"><ele>556.2</ele><time>2016-10-18T14:39:47Z</time></trkpt>
<trkpt lat="46.49848" lon="6.71385"><ele>558.4</ele><time>2016-10-18T14:40:04Z</time></trkpt>
<trkpt lat="46.49848" lon="6.71389"><ele>555.4</ele><time>2016-10-18T14:40:18Z</time></trkpt>
<trkpt lat="46.49848" lon="6.71389"><ele>555</ele><time>2016-10-18T14:40:27Z</time></trkpt>
<trkpt lat="46.49847" lon="6.71389"><ele>555</ele><time>2016-10-18T14:40:30Z</time></trkpt>
<trkpt lat="46.49847" lon="6.71387"><ele>554.2</ele><time>2016-10-18T14:40:37Z</time></trkpt>
<trkpt lat="46.49846" lon="6.71383"><ele>553.8</ele><time>2016-10-18T14:40:56Z</time></trkpt>
<trkpt lat="46.49842" lon="6.71378"><ele>553.4</ele><time>2016-10-18T14:41:00Z</time></trkpt>
<trkpt lat="46.49825" lon="6.71371"><ele>553.2</ele><time>2016-10-18T14:41:09Z</time></trkpt>
<trkpt lat="46.49825" lon="6.71371"><ele>553.2</ele><time>2016-10-18T14:41:10Z</time></trkpt>
<trkpt lat="46.49827" lon="6.71371"><ele>553</ele><time>2016-10-18T14:41:19Z</time></trkpt>
<trkpt lat="46.49831" lon="6.71369"><ele>553</ele><time>2016-10-18T14:41:25Z</time></trkpt>
<trkpt lat="46.49834" lon="6.71354"><ele>553.2</ele><time>2016-10-18T14:41:37Z</time></trkpt>
<trkpt lat="46.49842" lon="6.71348"><ele>552.6</ele><time>2016-10-18T14:41:50Z</time></trkpt>
<trkpt lat="46.49842" lon="6.71347"><ele>552</ele><time>2016-10-18T14:41:56Z</time></trkpt>
<trkpt lat="46.49832" lon="6.71363"><ele>550.8</ele><time>2016-10-18T14:42:20Z</time></trkpt>
<trkpt lat="46.49831" lon="6.71367"><ele>551.4</ele><time>2016-10-18T14:42:23Z</time></trkpt>
<trkpt lat="46.4982" lon="6.71368"><ele>552.4</ele><time>2016-10-18T14:42:36Z</time></trkpt>
<trkpt lat="46.49811" lon="6.7136"><ele>552</ele><time>2016-10-18T14:42:41Z</time></trkpt>
<trkpt lat="46.49811" lon="6.71359"><ele>551.8</ele><time>2016-10-18T14:42:43Z</time></trkpt>
<trkpt lat="46.49796" lon="6.71349"><ele>546.4</ele><time>2016-10-18T14:42:55Z</time></trkpt>
<trkpt lat="46.49796" lon="6.71345"><ele>543.8</ele><time>2016-10-18T14:43:13Z</time></trkpt>
<trkpt lat="46.49796" lon="6.71346"><ele>543.6</ele><time>2016-10-18T14:43:14Z</time></trkpt>
<trkpt lat="46.49796" lon="6.71346"><ele>543.6</ele><time>2016-10-18T14:43:15Z</time></trkpt>
<trkpt lat="46.49795" lon="6.71348"><ele>542.2</ele><time>2016-10-18T14:43:21Z</time></trkpt>
<trkpt lat="46.49795" lon="6.71353"><ele>542.2</ele><time>2016-10-18T14:43:24Z</time></trkpt>
<trkpt lat="46.49796" lon="6.71354"><ele>542.4</ele><time>2016-10-18T14:43:25Z</time></trkpt>
<trkpt lat="46.49811" lon="6.71368"><ele>545.8</ele><time>2016-10-18T14:43:36Z</time></trkpt>
<trkpt lat="46.49815" lon="6.71371"><ele>546.8</ele><time>2016-10-18T14:43:39Z</time></trkpt>
<trkpt lat="46.49824" lon="6.71378"><ele>549</ele><time>2016-10-18T14:43:47Z</time></trkpt>
<trkpt lat="46.49813" lon="6.71398"><ele>552.2</ele><time>2016-10-18T14:44:12Z</time></trkpt>
<trkpt lat="46.49811" lon="6.71401"><ele>552.6</ele><time>2016-10-18T14:44:16Z</time></trkpt>
<trkpt lat="46.49811" lon="6.71404"><ele>554.2</ele><time>2016-10-18T14:44:49Z</time></trkpt>
<trkpt lat="46.49826" lon="6.71389"><ele>554.2</ele><time>2016-10-18T14:44:55Z</time></trkpt>
<trkpt lat="46.49836" lon="6.7138"><ele>554.2</ele><time>2016-10-18T14:44:58Z</time></trkpt>
<trkpt lat="46.49851" lon="6.71365"><ele>553.8</ele><time>2016-10-18T14:45:03Z</time></trkpt>
<trkpt lat="46.4987" lon="6.71351"><ele>553.6</ele><time>2016-10-18T14:45:08Z</time></trkpt>
<trkpt lat="46.49887" lon="6.71341"><ele>553.6</ele><time>2016-10-18T14:45:12Z</time></trkpt>
<trkpt lat="46.49919" lon="6.7132"><ele>552.6</ele><time>2016-10-18T14:45:21Z</time></trkpt>
<trkpt lat="46.49937" lon="6.71306"><ele>550.4</ele><time>2016-10-18T14:45:25Z</time></trkpt>
<trkpt lat="46.49954" lon="6.71292"><ele>548.4</ele><time>2016-10-18T14:45:30Z</time></trkpt>
<trkpt lat="46.49972" lon="6.71277"><ele>546.4</ele><time>2016-10-18T14:45:35Z</time></trkpt>
<trkpt lat="46.49985" lon="6.71265"><ele>545.6</ele><time>2016-10-18T14:45:38Z</time></trkpt>
<trkpt lat="46.50003" lon="6.71246"><ele>543.8</ele><time>2016-10-18T14:45:42Z</time></trkpt>
<trkpt lat="46.50017" lon="6.71231"><ele>543.6</ele><time>2016-10-18T14:45:45Z</time></trkpt>
<trkpt lat="46.50034" lon="6.71213"><ele>544</ele><time>2016-10-18T14:45:49Z</time></trkpt>
<trkpt lat="46.50049" lon="6.71195"><ele>545.2</ele><time>2016-10-18T14:45:54Z</time></trkpt>
<trkpt lat="46.50061" lon="6.71175"><ele>546</ele><time>2016-10-18T14:45:58Z</time></trkpt>
<trkpt lat="46.50068" lon="6.71164"><ele>544.6</ele><time>2016-10-18T14:46:00Z</time></trkpt>
<trkpt lat="46.50071" lon="6.71159"><ele>544.6</ele><time>2016-10-18T14:46:01Z</time></trkpt>
<trkpt lat="46.50083" lon="6.7114"><ele>545.2</ele><time>2016-10-18T14:46:06Z</time></trkpt>
<trkpt lat="46.50087" lon="6.71128"><ele>545.8</ele><time>2016-10-18T14:46:24Z</time></trkpt>
<trkpt lat="46.50094" lon="6.71122"><ele>547.6</ele><time>2016-10-18T14:46:37Z</time></trkpt>
<trkpt lat="46.50106" lon="6.711"><ele>546.8</ele><time>2016-10-18T14:46:47Z</time></trkpt>
<trkpt lat="46.50118" lon="6.71071"><ele>546</ele><time>2016-10-18T14:46:51Z</time></trkpt>
<trkpt lat="46.50127" lon="6.71045"><ele>545</ele><time>2016-10-18T14:46:54Z</time></trkpt>
<trkpt lat="46.50136" lon="6.71018"><ele>544.4</ele><time>2016-10-18T14:46:57Z</time></trkpt>
<trkpt lat="46.50144" lon="6.70991"><ele>544.2</ele><time>2016-10-18T14:47:00Z</time></trkpt>
<trkpt lat="46.5015" lon="6.70966"><ele>543.6</ele><time>2016-10-18T14:47:03Z</time></trkpt>
<trkpt lat="46.50153" lon="6.70958"><ele>543.4</ele><time>2016-10-18T14:47:04Z</time></trkpt>
<trkpt lat="46.50161" lon="6.70929"><ele>543.4</ele><time>2016-10-18T14:47:08Z</time></trkpt>
<trkpt lat="46.50165" lon="6.70917"><ele>543.8</ele><time>2016-10-18T14:47:10Z</time></trkpt>
<trkpt lat="46.5017" lon="6.70898"><ele>544.6</ele><time>2016-10-18T14:47:14Z</time></trkpt>
<trkpt lat="46.50173" lon="6.70864"><ele>547.6</ele><time>2016-10-18T14:47:21Z</time></trkpt>
<trkpt lat="46.50174" lon="6.70841"><ele>550</ele><time>2016-10-18T14:47:26Z</time></trkpt>
<trkpt lat="46.50178" lon="6.70812"><ele>551.4</ele><time>2016-10-18T14:47:32Z</time></trkpt>
<trkpt lat="46.50184" lon="6.70783"><ele>550.4</ele><time>2016-10-18T14:47:37Z</time></trkpt>
<trkpt lat="46.5019" lon="6.70758"><ele>549.6</ele><time>2016-10-18T14:47:41Z</time></trkpt>
<trkpt lat="46.50194" lon="6.70741"><ele>549</ele><time>2016-10-18T14:47:45Z</time></trkpt>
<trkpt lat="46.50197" lon="6.70735"><ele>548.4</ele><time>2016-10-18T14:47:47Z</time></trkpt>
<trkpt lat="46.50202" lon="6.70718"><ele>547.2</ele><time>2016-10-18T14:47:55Z</time></trkpt>
<trkpt lat="46.50183" lon="6.707"><ele>541.6</ele><time>2016-10-18T14:48:00Z</time></trkpt>
<trkpt lat="46.50168" lon="6.70687"><ele>538</ele><time>2016-10-18T14:48:04Z</time></trkpt>
<trkpt lat="46.50165" lon="6.70656"><ele>534.6</ele><time>2016-10-18T14:48:11Z</time></trkpt>
<trkpt lat="46.50164" lon="6.70653"><ele>534.2</ele><time>2016-10-18T14:48:12Z</time></trkpt>
<trkpt lat="46.50168" lon="6.70655"><ele>531.8</ele><time>2016-10-18T14:48:38Z</time></trkpt>
<trkpt lat="46.50151" lon="6.70661"><ele>531.2</ele><time>2016-10-18T14:48:47Z</time></trkpt>
<trkpt lat="46.5014" lon="6.70661"><ele>529.2</ele><time>2016-10-18T14:48:50Z</time></trkpt>
<trkpt lat="46.50124" lon="6.70662"><ele>527</ele><time>2016-10-18T14:48:53Z</time></trkpt>
<trkpt lat="46.50115" lon="6.7066"><ele>526</ele><time>2016-10-18T14:48:55Z</time></trkpt>
<trkpt lat="46.50097" lon="6.70655"><ele>518.4</ele><time>2016-10-18T14:49:01Z</time></trkpt>
<trkpt lat="46.50074" lon="6.70647"><ele>509.6</ele><time>2016-10-18T14:49:10Z</time></trkpt>
<trkpt lat="46.50053" lon="6.7064"><ele>502.6</ele><time>2016-10-18T14:49:15Z</time></trkpt>
<trkpt lat="46.50035" lon="6.70633"><ele>496.4</ele><time>2016-10-18T14:49:20Z</time></trkpt>
<trkpt lat="46.50032" lon="6.70634"><ele>495.6</ele><time>2016-10-18T14:49:21Z</time></trkpt>
<trkpt lat="46.50026" lon="6.70641"><ele>494.2</ele><time>2016-10-18T14:49:23Z</time></trkpt>
<trkpt lat="46.50015" lon="6.7064"><ele>490.4</ele><time>2016-10-18T14:49:26Z</time></trkpt>
<trkpt lat="46.49997" lon="6.70635"><ele>485.8</ele><time>2016-10-18T14:49:30Z</time></trkpt>
<trkpt lat="46.49976" lon="6.70631"><ele>481.4</ele><time>2016-10-18T14:49:37Z</time></trkpt>
<trkpt lat="46.49954" lon="6.70631"><ele>478</ele><time>2016-10-18T14:49:41Z</time></trkpt>
<trkpt lat="46.49933" lon="6.70625"><ele>475.4</ele><time>2016-10-18T14:49:45Z</time></trkpt>
<trkpt lat="46.49913" lon="6.70607"><ele>469.2</ele><time>2016-10-18T14:49:49Z</time></trkpt>
<trkpt lat="46.49899" lon="6.70591"><ele>464.6</ele><time>2016-10-18T14:49:54Z</time></trkpt>
<trkpt lat="46.49907" lon="6.70565"><ele>463</ele><time>2016-10-18T14:50:00Z</time></trkpt>
<trkpt lat="46.49919" lon="6.70545"><ele>461.8</ele><time>2016-10-18T14:50:03Z</time></trkpt>
<trkpt lat="46.49932" lon="6.70516"><ele>460.2</ele><time>2016-10-18T14:50:06Z</time></trkpt>
<trkpt lat="46.49944" lon="6.70485"><ele>459.6</ele><time>2016-10-18T14:50:09Z</time></trkpt>
<trkpt lat="46.4996" lon="6.70462"><ele>460</ele><time>2016-10-18T14:50:12Z</time></trkpt>
<trkpt lat="46.49975" lon="6.70443"><ele>459.6</ele><time>2016-10-18T14:50:15Z</time></trkpt>
<trkpt lat="46.49979" lon="6.70435"><ele>459.6</ele><time>2016-10-18T14:50:16Z</time></trkpt>
<trkpt lat="46.49987" lon="6.70409"><ele>458.4</ele><time>2016-10-18T14:50:19Z</time></trkpt>
<trkpt lat="46.49987" lon="6.70375"><ele>458.2</ele><time>2016-10-18T14:50:22Z</time></trkpt>
<trkpt lat="46.49986" lon="6.70363"><ele>459</ele><time>2016-10-18T14:50:23Z</time></trkpt>
<trkpt lat="46.49988" lon="6.70329"><ele>460.4</ele><time>2016-10-18T14:50:26Z</time></trkpt>
<trkpt lat="46.50001" lon="6.70312"><ele>463.8</ele><time>2016-10-18T14:50:29Z</time></trkpt>
<trkpt lat="46.50022" lon="6.7032"><ele>467.6</ele><time>2016-10-18T14:50:34Z</time></trkpt>
<trkpt lat="46.50035" lon="6.7031"><ele>470.4</ele><time>2016-10-18T14:50:38Z</time></trkpt>
<trkpt lat="46.50037" lon="6.70306"><ele>470.8</ele><time>2016-10-18T14:50:39Z</time></trkpt>
<trkpt lat="46.5005" lon="6.70283"><ele>471.2</ele><time>2016-10-18T14:50:44Z</time></trkpt>
<trkpt lat="46.50054" lon="6.70279"><ele>471</ele><time>2016-10-18T14:50:45Z</time></trkpt>
<trkpt lat="46.50072" lon="6.70261"><ele>470</ele><time>2016-10-18T14:50:50Z</time></trkpt>
<trkpt lat="46.50088" lon="6.70244"><ele>469.6</ele><time>2016-10-18T14:50:54Z</time></trkpt>
<trkpt lat="46.50102" lon="6.7023"><ele>469.8</ele><time>2016-10-18T14:50:58Z</time></trkpt>
<trkpt lat="46.50115" lon="6.70236"><ele>471</ele><time>2016-10-18T14:51:03Z</time></trkpt>
<trkpt lat="46.50127" lon="6.7023"><ele>471.8</ele><time>2016-10-18T14:51:09Z</time></trkpt>
<trkpt lat="46.50142" lon="6.70206"><ele>470.8</ele><time>2016-10-18T14:51:14Z</time></trkpt>
<trkpt lat="46.50148" lon="6.70198"><ele>470</ele><time>2016-10-18T14:51:16Z</time></trkpt>
<trkpt lat="46.50166" lon="6.70179"><ele>468.8</ele><time>2016-10-18T14:51:21Z</time></trkpt>
<trkpt lat="46.50179" lon="6.70162"><ele>463</ele><time>2016-10-18T14:51:24Z</time></trkpt>
<trkpt lat="46.50188" lon="6.70139"><ele>460</ele><time>2016-10-18T14:51:27Z</time></trkpt>
<trkpt lat="46.50191" lon="6.70129"><ele>458.6</ele><time>2016-10-18T14:51:28Z</time></trkpt>
<trkpt lat="46.50204" lon="6.70109"><ele>454.8</ele><time>2016-10-18T14:51:31Z</time></trkpt>
<trkpt lat="46.50208" lon="6.70105"><ele>454</ele><time>2016-10-18T14:51:32Z</time></trkpt>
<trkpt lat="46.50223" lon="6.70085"><ele>449.8</ele><time>2016-10-18T14:51:36Z</time></trkpt>
<trkpt lat="46.50229" lon="6.70077"><ele>448</ele><time>2016-10-18T14:51:37Z</time></trkpt>
<trkpt lat="46.50245" lon="6.70062"><ele>444.8</ele><time>2016-10-18T14:51:39Z</time></trkpt>
<trkpt lat="46.50252" lon="6.70053"><ele>443.8</ele><time>2016-10-18T14:51:40Z</time></trkpt>
<trkpt lat="46.50267" lon="6.70025"><ele>440.4</ele><time>2016-10-18T14:51:43Z</time></trkpt>
<trkpt lat="46.50271" lon="6.70017"><ele>439</ele><time>2016-10-18T14:51:44Z</time></trkpt>
<trkpt lat="46.50288" lon="6.69997"><ele>434.4</ele><time>2016-10-18T14:51:48Z</time></trkpt>
<trkpt lat="46.50311" lon="6.70006"><ele>430.6</ele><time>2016-10-18T14:51:52Z</time></trkpt>
<trkpt lat="46.50315" lon="6.70008"><ele>430</ele><time>2016-10-18T14:51:53Z</time></trkpt>
<trkpt lat="46.50325" lon="6.69981"><ele>425.2</ele><time>2016-10-18T14:51:58Z</time></trkpt>
<trkpt lat="46.50322" lon="6.69969"><ele>423.8</ele><time>2016-10-18T14:52:00Z</time></trkpt>
<trkpt lat="46.50319" lon="6.69953"><ele>422</ele><time>2016-10-18T14:52:02Z</time></trkpt>
<trkpt lat="46.50319" lon="6.69921"><ele>418.2</ele><time>2016-10-18T14:52:06Z</time></trkpt>
<trkpt lat="46.50309" lon="6.69909"><ele>414.2</ele><time>2016-10-18T14:52:10Z</time></trkpt>
<trkpt lat="46.50289" lon="6.69896"><ele>410.4</ele><time>2016-10-18T14:52:13Z</time></trkpt>
<trkpt lat="46.50266" lon="6.69886"><ele>407.2</ele><time>2016-10-18T14:52:16Z</time></trkpt>
<trkpt lat="46.50247" lon="6.69879"><ele>404.4</ele><time>2016-10-18T14:52:19Z</time></trkpt>
<trkpt lat="46.5024" lon="6.69878"><ele>403.4</ele><time>2016-10-18T14:52:20Z</time></trkpt>
<trkpt lat="46.50222" lon="6.69876"><ele>401.4</ele><time>2016-10-18T14:52:23Z</time></trkpt>
<trkpt lat="46.50211" lon="6.69875"><ele>402.4</ele><time>2016-10-18T14:52:25Z</time></trkpt>
<trkpt lat="46.50206" lon="6.69873"><ele>402.6</ele><time>2016-10-18T14:52:26Z</time></trkpt>
<trkpt lat="46.50201" lon="6.69868"><ele>402.8</ele><time>2016-10-18T14:52:28Z</time></trkpt>
<trkpt lat="46.50197" lon="6.69855"><ele>403.2</ele><time>2016-10-18T14:52:38Z</time></trkpt>
<trkpt lat="46.50196" lon="6.69851"><ele>403</ele><time>2016-10-18T14:52:40Z</time></trkpt>
<trkpt lat="46.50208" lon="6.69829"><ele>401.4</ele><time>2016-10-18T14:52:45Z</time></trkpt>
<trkpt lat="46.50212" lon="6.69822"><ele>401</ele><time>2016-10-18T14:52:46Z</time></trkpt>
<trkpt lat="46.50227" lon="6.69799"><ele>399.4</ele><time>2016-10-18T14:52:49Z</time></trkpt>
<trkpt lat="46.50244" lon="6.69772"><ele>397.2</ele><time>2016-10-18T14:52:52Z</time></trkpt>
<trkpt lat="46.50254" lon="6.69753"><ele>395.4</ele><time>2016-10-18T14:52:54Z</time></trkpt>
<trkpt lat="46.5026" lon="6.69719"><ele>392</ele><time>2016-10-18T14:52:57Z</time></trkpt>
<trkpt lat="46.50252" lon="6.69684"><ele>388.8</ele><time>2016-10-18T14:53:00Z</time></trkpt>
<trkpt lat="46.50234" lon="6.6966"><ele>387</ele><time>2016-10-18T14:53:03Z</time></trkpt>
<trkpt lat="46.50228" lon="6.69655"><ele>386.2</ele><time>2016-10-18T14:53:04Z</time></trkpt>
<trkpt lat="46.50218" lon="6.69647"><ele>385.2</ele><time>2016-10-18T14:53:06Z</time></trkpt>
<trkpt lat="46.50213" lon="6.69669"><ele>384</ele><time>2016-10-18T14:53:11Z</time></trkpt>
<trkpt lat="46.50212" lon="6.69682"><ele>384.4</ele><time>2016-10-18T14:53:13Z</time></trkpt>
<trkpt lat="46.50208" lon="6.69726"><ele>387.2</ele><time>2016-10-18T14:53:21Z</time></trkpt>
<trkpt lat="46.50206" lon="6.69736"><ele>388.4</ele><time>2016-10-18T14:53:24Z</time></trkpt>
<trkpt lat="46.50202" lon="6.6975"><ele>391</ele><time>2016-10-18T14:53:30Z</time></trkpt>
<trkpt lat="46.502" lon="6.69756"><ele>392.4</ele><time>2016-10-18T14:53:33Z</time></trkpt>
<trkpt lat="46.50196" lon="6.69766"><ele>394.4</ele><time>2016-10-18T14:53:38Z</time></trkpt>
<trkpt lat="46.50195" lon="6.69767"><ele>394.6</ele><time>2016-10-18T14:53:39Z</time></trkpt>
<trkpt lat="46.50193" lon="6.6977"><ele>395</ele><time>2016-10-18T14:53:41Z</time></trkpt>
<trkpt lat="46.5019" lon="6.69776"><ele>396</ele><time>2016-10-18T14:53:45Z</time></trkpt>
<trkpt lat="46.50189" lon="6.69779"><ele>396.8</ele><time>2016-10-18T14:53:47Z</time></trkpt>
<trkpt lat="46.50187" lon="6.69784"><ele>397.8</ele><time>2016-10-18T14:53:50Z</time></trkpt>
<trkpt lat="46.50184" lon="6.6979"><ele>399</ele><time>2016-10-18T14:53:54Z</time></trkpt>
<trkpt lat="46.50184" lon="6.69792"><ele>399.4</ele><time>2016-10-18T14:53:55Z</time></trkpt>
<trkpt lat="46.50184" lon="6.69796"><ele>400</ele><time>2016-10-18T14:53:57Z</time></trkpt>
<trkpt lat="46.50186" lon="6.69822"><ele>402</ele><time>2016-10-18T14:54:07Z</time></trkpt>
<trkpt lat="46.50188" lon="6.69832"><ele>402.4</ele><time>2016-10-18T14:54:10Z</time></trkpt>
<trkpt lat="46.5019" lon="6.69849"><ele>402.2</ele><time>2016-10-18T14:54:16Z</time></trkpt>
<trkpt lat="46.50181" lon="6.69875"><ele>400.8</ele><time>2016-10-18T14:54:25Z</time></trkpt>
<trkpt lat="46.50169" lon="6.69897"><ele>402</ele><time>2016-10-18T14:54:32Z</time></trkpt>
<trkpt lat="46.50157" lon="6.69921"><ele>403.2</ele><time>2016-10-18T14:54:39Z</time></trkpt>
<trkpt lat="46.50146" lon="6.69943"><ele>403.6</ele><time>2016-10-18T14:54:45Z</time></trkpt>
<trkpt lat="46.50139" lon="6.69955"><ele>404.8</ele><time>2016-10-18T14:54:48Z</time></trkpt>
<trkpt lat="46.50135" lon="6.69965"><ele>405.4</ele><time>2016-10-18T14:54:50Z</time></trkpt>
<trkpt lat="46.50131" lon="6.69974"><ele>406</ele><time>2016-10-18T14:54:52Z</time></trkpt>
<trkpt lat="46.50118" lon="6.69998"><ele>407.2</ele><time>2016-10-18T14:54:57Z</time></trkpt>
<trkpt lat="46.50106" lon="6.70023"><ele>407.8</ele><time>2016-10-18T14:55:02Z</time></trkpt>
<trkpt lat="46.50095" lon="6.70042"><ele>408.4</ele><time>2016-10-18T14:55:06Z</time></trkpt>
<trkpt lat="46.50079" lon="6.70057"><ele>409</ele><time>2016-10-18T14:55:10Z</time></trkpt>
<trkpt lat="46.5007" lon="6.70059"><ele>409.6</ele><time>2016-10-18T14:55:12Z</time></trkpt>
<trkpt lat="46.50065" lon="6.70059"><ele>409.8</ele><time>2016-10-18T14:55:13Z</time></trkpt>
<trkpt lat="46.50045" lon="6.70058"><ele>411.4</ele><time>2016-10-18T14:55:18Z</time></trkpt>
<trkpt lat="46.50032" lon="6.70062"><ele>412.4</ele><time>2016-10-18T14:55:22Z</time></trkpt>
<trkpt lat="46.50016" lon="6.70076"><ele>414</ele><time>2016-10-18T14:55:29Z</time></trkpt>
<trkpt lat="46.50001" lon="6.70092"><ele>416.2</ele><time>2016-10-18T14:55:36Z</time></trkpt>
<trkpt lat="46.49991" lon="6.70104"><ele>416.6</ele><time>2016-10-18T14:55:41Z</time></trkpt>
<trkpt lat="46.4998" lon="6.70119"><ele>418</ele><time>2016-10-18T14:55:47Z</time></trkpt>
<trkpt lat="46.49975" lon="6.70128"><ele>418.8</ele><time>2016-10-18T14:55:50Z</time></trkpt>
<trkpt lat="46.49964" lon="6.70151"><ele>419.6</ele><time>2016-10-18T14:55:57Z</time></trkpt>
<trkpt lat="46.49955" lon="6.70178"><ele>420.6</ele><time>2016-10-18T14:56:04Z</time></trkpt>
<trkpt lat="46.49952" lon="6.70186"><ele>421.2</ele><time>2016-10-18T14:56:06Z</time></trkpt>
<trkpt lat="46.49944" lon="6.70214"><ele>422.8</ele><time>2016-10-18T14:56:13Z</time></trkpt>
<trkpt lat="46.49944" lon="6.7024"><ele>424.2</ele><time>2016-10-18T14:56:19Z</time></trkpt>
<trkpt lat="46.49944" lon="6.70245"><ele>424.4</ele><time>2016-10-18T14:56:20Z</time></trkpt>
<trkpt lat="46.49944" lon="6.70249"><ele>424.6</ele><time>2016-10-18T14:56:21Z</time></trkpt>
<trkpt lat="46.49945" lon="6.70254"><ele>425</ele><time>2016-10-18T14:56:22Z</time></trkpt>
<trkpt lat="46.49944" lon="6.70259"><ele>425.2</ele><time>2016-10-18T14:56:23Z</time></trkpt>
<trkpt lat="46.49937" lon="6.70279"><ele>426.4</ele><time>2016-10-18T14:56:28Z</time></trkpt>
<trkpt lat="46.49923" lon="6.70297"><ele>428.2</ele><time>2016-10-18T14:56:34Z</time></trkpt>
<trkpt lat="46.49914" lon="6.70322"><ele>428.8</ele><time>2016-10-18T14:56:40Z</time></trkpt>
<trkpt lat="46.49908" lon="6.70348"><ele>429.8</ele><time>2016-10-18T14:56:46Z</time></trkpt>
<trkpt lat="46.49907" lon="6.70352"><ele>430</ele><time>2016-10-18T14:56:47Z</time></trkpt>
<trkpt lat="46.49891" lon="6.70389"><ele>431.8</ele><time>2016-10-18T14:56:57Z</time></trkpt>
<trkpt lat="46.49889" lon="6.70391"><ele>432</ele><time>2016-10-18T14:56:58Z</time></trkpt>
<trkpt lat="46.49886" lon="6.70393"><ele>433.4</ele><time>2016-10-18T14:57:10Z</time></trkpt>
<trkpt lat="46.49886" lon="6.70391"><ele>433</ele><time>2016-10-18T14:57:17Z</time></trkpt>
<trkpt lat="46.49886" lon="6.7039"><ele>434</ele><time>2016-10-18T14:57:33Z</time></trkpt>
<trkpt lat="46.49886" lon="6.7039"><ele>434.2</ele><time>2016-10-18T14:57:36Z</time></trkpt>
<trkpt lat="46.49886" lon="6.70391"><ele>434.4</ele><time>2016-10-18T14:57:37Z</time></trkpt>
<trkpt lat="46.49886" lon="6.70391"><ele>434.6</ele><time>2016-10-18T14:57:39Z</time></trkpt>
<trkpt lat="46.49886" lon="6.70391"><ele>434.6</ele><time>2016-10-18T14:57:40Z</time></trkpt>
<trkpt lat="46.49886" lon="6.7039"><ele>434.8</ele><time>2016-10-18T14:57:48Z</time></trkpt>
<trkpt lat="46.49886" lon="6.70389"><ele>434.8</ele><time>2016-10-18T14:57:54Z</time></trkpt>
<trkpt lat="46.49886" lon="6.70389"><ele>434.8</ele><time>2016-10-18T14:57:58Z</time></trkpt>
<trkpt lat="46.49886" lon="6.70387"><ele>435</ele><time>2016-10-18T14:58:14Z</time></trkpt>
<trkpt lat="46.49886" lon="6.70387"><ele>434.8</ele><time>2016-10-18T14:58:20Z</time></trkpt>
<trkpt lat="46.49887" lon="6.70387"><ele>434.8</ele><time>2016-10-18T14:58:30Z</time></trkpt>
<trkpt lat="46.49887" lon="6.70387"><ele>435.2</ele><time>2016-10-18T14:58:50Z</time></trkpt>
<trkpt lat="46.49887" lon="6.70389"><ele>434.2</ele><time>2016-10-18T14:59:05Z</time></trkpt>
<trkpt lat="46.49887" lon="6.70392"><ele>433.6</ele><time>2016-10-18T14:59:13Z</time></trkpt>
<trkpt lat="46.49887" lon="6.70402"><ele>433.6</ele><time>2016-10-18T14:59:17Z</time></trkpt>
<trkpt lat="46.49882" lon="6.70431"><ele>435</ele><time>2016-10-18T14:59:25Z</time></trkpt>
<trkpt lat="46.49871" lon="6.7047"><ele>437.2</ele><time>2016-10-18T14:59:35Z</time></trkpt>
<trkpt lat="46.49859" lon="6.70494"><ele>439.2</ele><time>2016-10-18T14:59:42Z</time></trkpt>
<trkpt lat="46.49843" lon="6.70512"><ele>440.8</ele><time>2016-10-18T14:59:49Z</time></trkpt>
<trkpt lat="46.49838" lon="6.70516"><ele>441.4</ele><time>2016-10-18T14:59:51Z</time></trkpt>
<trkpt lat="46.49821" lon="6.70533"><ele>443.2</ele><time>2016-10-18T14:59:58Z</time></trkpt>
<trkpt lat="46.49805" lon="6.70549"><ele>444.8</ele><time>2016-10-18T15:00:05Z</time></trkpt>
<trkpt lat="46.49803" lon="6.70552"><ele>445.2</ele><time>2016-10-18T15:00:06Z</time></trkpt>
<trkpt lat="46.49792" lon="6.70576"><ele>446.8</ele><time>2016-10-18T15:00:13Z</time></trkpt>
<trkpt lat="46.49788" lon="6.70604"><ele>448.2</ele><time>2016-10-18T15:00:20Z</time></trkpt>
<trkpt lat="46.49792" lon="6.70632"><ele>449.6</ele><time>2016-10-18T15:00:27Z</time></trkpt>
<trkpt lat="46.49802" lon="6.7066"><ele>451.4</ele><time>2016-10-18T15:00:35Z</time></trkpt>
<trkpt lat="46.49814" lon="6.70683"><ele>453</ele><time>2016-10-18T15:00:42Z</time></trkpt>
<trkpt lat="46.49828" lon="6.70704"><ele>454.8</ele><time>2016-10-18T15:00:49Z</time></trkpt>
<trkpt lat="46.49844" lon="6.70722"><ele>456.4</ele><time>2016-10-18T15:00:56Z</time></trkpt>
<trkpt lat="46.49858" lon="6.70741"><ele>457.6</ele><time>2016-10-18T15:01:02Z</time></trkpt>
<trkpt lat="46.49867" lon="6.70764"><ele>458.2</ele><time>2016-10-18T15:01:08Z</time></trkpt>
<trkpt lat="46.49867" lon="6.70783"><ele>455.6</ele><time>2016-10-18T15:01:12Z</time></trkpt>
<trkpt lat="46.49851" lon="6.70797"><ele>451</ele><time>2016-10-18T15:01:17Z</time></trkpt>
<trkpt lat="46.49847" lon="6.70796"><ele>450</ele><time>2016-10-18T15:01:18Z</time></trkpt>
<trkpt lat="46.49824" lon="6.70792"><ele>444.2</ele><time>2016-10-18T15:01:23Z</time></trkpt>
<trkpt lat="46.498" lon="6.70789"><ele>438</ele><time>2016-10-18T15:01:27Z</time></trkpt>
<trkpt lat="46.49782" lon="6.70785"><ele>433</ele><time>2016-10-18T15:01:30Z</time></trkpt>
<trkpt lat="46.49776" lon="6.70782"><ele>431.2</ele><time>2016-10-18T15:01:31Z</time></trkpt>
<trkpt lat="46.49756" lon="6.70772"><ele>425.8</ele><time>2016-10-18T15:01:34Z</time></trkpt>
<trkpt lat="46.49743" lon="6.70765"><ele>421.8</ele><time>2016-10-18T15:01:36Z</time></trkpt>
<trkpt lat="46.49722" lon="6.70753"><ele>417</ele><time>2016-10-18T15:01:39Z</time></trkpt>
<trkpt lat="46.49701" lon="6.70763"><ele>415.4</ele><time>2016-10-18T15:01:43Z</time></trkpt>
<trkpt lat="46.49683" lon="6.7078"><ele>413</ele><time>2016-10-18T15:01:47Z</time></trkpt>
<trkpt lat="46.49665" lon="6.70785"><ele>409.4</ele><time>2016-10-18T15:01:50Z</time></trkpt>
<trkpt lat="46.49646" lon="6.70791"><ele>406.2</ele><time>2016-10-18T15:01:53Z</time></trkpt>
<trkpt lat="46.49633" lon="6.70805"><ele>404</ele><time>2016-10-18T15:01:55Z</time></trkpt>
<trkpt lat="46.49617" lon="6.70821"><ele>401.6</ele><time>2016-10-18T15:01:57Z</time></trkpt>
<trkpt lat="46.496" lon="6.70837"><ele>399</ele><time>2016-10-18T15:01:59Z</time></trkpt>
<trkpt lat="46.49575" lon="6.70847"><ele>395.2</ele><time>2016-10-18T15:02:02Z</time></trkpt>
<trkpt lat="46.49562" lon="6.70847"><ele>393</ele><time>2016-10-18T15:02:04Z</time></trkpt>
<trkpt lat="46.49546" lon="6.70847"><ele>390.2</ele><time>2016-10-18T15:02:08Z</time></trkpt>
<trkpt lat="46.49533" lon="6.70865"><ele>389</ele><time>2016-10-18T15:02:14Z</time></trkpt>
<trkpt lat="46.49531" lon="6.70869"><ele>389</ele><time>2016-10-18T15:02:15Z</time></trkpt>
<trkpt lat="46.49525" lon="6.70884"><ele>388.8</ele><time>2016-10-18T15:02:20Z</time></trkpt>
<trkpt lat="46.49517" lon="6.709"><ele>389.2</ele><time>2016-10-18T15:02:26Z</time></trkpt>
<trkpt lat="46.49515" lon="6.70904"><ele>389.2</ele><time>2016-10-18T15:02:27Z</time></trkpt>
<trkpt lat="46.49497" lon="6.7092"><ele>389.6</ele><time>2016-10-18T15:02:33Z</time></trkpt>
<trkpt lat="46.49484" lon="6.70904"><ele>386.4</ele><time>2016-10-18T15:02:37Z</time></trkpt>
<trkpt lat="46.49468" lon="6.70896"><ele>385</ele><time>2016-10-18T15:02:40Z</time></trkpt>
<trkpt lat="46.49455" lon="6.70914"><ele>384</ele><time>2016-10-18T15:02:43Z</time></trkpt>
<trkpt lat="46.49441" lon="6.70937"><ele>383.4</ele><time>2016-10-18T15:02:47Z</time></trkpt>
<trkpt lat="46.49428" lon="6.70957"><ele>383</ele><time>2016-10-18T15:02:51Z</time></trkpt>
<trkpt lat="46.49426" lon="6.70961"><ele>384</ele><time>2016-10-18T15:02:52Z</time></trkpt>
<trkpt lat="46.49421" lon="6.70964"><ele>383.2</ele><time>2016-10-18T15:03:10Z</time></trkpt>
<trkpt lat="46.4942" lon="6.70963"><ele>383.2</ele><time>2016-10-18T15:03:32Z</time></trkpt>
<trkpt lat="46.49422" lon="6.70962"><ele>383</ele><time>2016-10-18T15:03:35Z</time></trkpt>
<trkpt lat="46.49422" lon="6.70962"><ele>383.2</ele><time>2016-10-18T15:03:36Z</time></trkpt>
</trkseg></trk></gpx>